Data for 07/15/2008

Time Sea-Level Adjusted Pressure Absolute Pressure Temperature Relative Humidity Dew Point Precipitation   
(mb) (inHg) (mb) (inHg) (C) (F) (%) (C) (F) (mm) (in)
00:01 1022 30.18 851 25.13 13.7 56.6 40 0.3 32.5 0
00:02 1022 30.18 851 25.13 13.6 56.4 40 0.5 32.8 0
00:03 1022 30.18 851 25.13 13.4 56.2 41 0.5 32.9 0
00:04 1022 30.18 851 25.13 13.4 56 41 0.5 32.9 0
00:05 1022 30.18 851 25.13 13.3 55.9 41 0.4 32.8 0
00:06 1022 30.18 851 25.13 13.2 55.8 41 0.5 32.9 0
00:07 1022 30.18 851 25.13 13.1 55.6 42 0.6 33.2 0
00:08 1022 30.18 851 25.13 12.9 55.2 44 1 33.7 0
00:09 1022 30.18 851 25.13 12.7 54.9 45 1.1 33.9 0
00:10 1022 30.18 851 25.13 12.4 54.4 46 1.3 34.4 0
00:11 1022 30.18 851 25.13 12.2 53.9 46 1 33.9 0
00:12 1022 30.18 851 25.13 12 53.6 47 1.2 34.1 0
00:13 1022 30.18 851 25.13 11.8 53.2 48 1.2 34.1 0
00:14 1022 30.18 851 25.13 11.6 53 48 1.1 34 0
00:15 1022 30.18 851 25.13 11.5 52.8 49 1.3 34.4 0
00:16 1022 30.18 851 25.13 11.4 52.5 51 1.6 34.9 0
00:17 1022 30.18 851 25.13 11.1 52 52 1.7 35 0
00:18 1022 30.18 851 25.13 10.9 51.6 52 1.5 34.7 0
00:19 1022 30.18 851 25.13 10.8 51.4 52 1.3 34.4 0
00:20 1022 30.18 851 25.13 10.7 51.3 53 1.5 34.7 0
00:21 1022 30.18 851 25.13 10.6 51.1 52 1.2 34.1 0
00:22 1022 30.18 851 25.13 10.6 51 53 1.5 34.6 0
00:23 1022 30.18 851 25.13 10.6 51 52 1.1 34 0
00:24 1022 30.18 851 25.13 10.7 51.3 52 1.4 34.5 0
00:25 1022 30.18 851 25.13 10.7 51.2 53 1.6 35 0
00:26 1022 30.18 851 25.13 10.6 51 53 1.4 34.6 0
00:27 1022 30.18 851 25.13 10.4 50.8 54 1.5 34.6 0
00:28 1022 30.18 851 25.13 10.3 50.6 54 1.5 34.8 0
00:29 1022 30.18 851 25.13 10.2 50.4 55 1.6 34.9 0
00:30 1022 30.18 851 25.13 10.1 50.2 55 1.6 34.8 0
00:31 1022 30.18 851 25.13 10.1 50.1 55 1.4 34.5 0
00:32 1022 30.18 851 25.13 10 50.1 54 1.3 34.3 0
00:33 1022 30.18 851 25.13 10.1 50.2 54 1.3 34.4 0
00:34 1022 30.18 851 25.13 10.1 50.2 55 1.4 34.5 0
00:35 1022 30.18 851 25.13 10.1 50.2 54 1.4 34.5 0
00:36 1022 30.18 851 25.13 10.2 50.3 50 0.3 32.5 0
00:37 1022 30.18 851 25.13 10.5 51 49 0.5 32.8 0
00:38 1022 30.18 851 25.13 10.8 51.5 49 0.6 33.2 0
00:39 1022 30.18 851 25.13 11.1 52 45 -0.4 31.2 0
00:40 1022 30.18 852 25.16 11.5 52.7 48 0.9 33.6 0
00:41 1022 30.18 851 25.13 11.5 52.6 47 0.7 33.3 0
00:42 1022 30.18 851 25.13 11.5 52.6 48 0.8 33.5 0
00:43 1022 30.18 851 25.13 11.4 52.5 47 0.5 32.9 0
00:44 1022 30.18 851 25.13 11.4 52.6 50 1.4 34.5 0
00:45 1022 30.18 851 25.13 11.2 52.1 50 1.1 34 0
00:46 1022 30.18 852 25.16 11.1 52 49 0.7 33.3 0
00:47 1022 30.18 852 25.16 11.3 52.3 48 0.8 33.4 0
00:48 1022 30.18 852 25.16 11.4 52.4 49 1 33.9 0
00:49 1022 30.18 852 25.16 11.4 52.5 49 1.1 34 0
00:50 1022 30.18 852 25.16 11.4 52.5 49 1.2 34.1 0
00:51 1022 30.18 852 25.16 11.4 52.4 48 0.9 33.7 0
00:52 1022 30.18 852 25.16 11.4 52.6 49 1.1 33.9 0
00:53 1022 30.18 852 25.16 11.4 52.5 50 1.5 34.6 0
00:54 1022 30.18 852 25.16 11.2 52.2 51 1.6 34.9 0
00:55 1022 30.18 852 25.16 11.1 51.9 52 1.7 35 0
00:56 1022 30.18 852 25.16 10.9 51.6 52 1.5 34.8 0
00:57 1022 30.18 852 25.16 10.8 51.5 52 1.5 34.7 0
00:58 1022 30.18 852 25.16 10.8 51.4 52 1.3 34.4 0
00:59 1022 30.18 852 25.16 10.7 51.3 52 1.2 34.2 0
01:00 1022 30.18 852 25.16 10.8 51.4 52 1.3 34.4 0
01:01 1022 30.18 852 25.16 10.8 51.5 52 1.4 34.6 0
01:02 1022 30.18 852 25.16 10.8 51.4 52 1.4 34.6 0
01:03 1022 30.18 852 25.16 10.8 51.4 52 1.4 34.5 0
01:04 1022 30.18 852 25.16 10.8 51.4 52 1.3 34.4 0
01:05 1022 30.18 852 25.16 10.9 51.5 51 1.2 34.2 0
01:06 1022 30.18 852 25.16 10.9 51.7 51 1.3 34.3 0
01:07 1022 30.18 852 25.16 10.9 51.6 51 1.3 34.4 0
01:08 1022 30.18 852 25.16 10.9 51.7 51 1.2 34.1 0
01:09 1022 30.18 852 25.16 10.9 51.7 51 1.1 34 0
01:10 1022 30.18 852 25.16 11 51.8 50 1.1 34 0
01:11 1022 30.18 852 25.16 11 51.8 50 1.1 33.9 0
01:12 1022 30.18 852 25.16 11 51.9 49 0.7 33.3 0
01:13 1022 30.18 852 25.16 11.2 52.1 48 0.7 33.2 0
01:14 1022 30.18 852 25.16 11.3 52.3 48 0.8 33.4 0
01:15 1022 30.18 852 25.16 11.3 52.4 48 0.7 33.2 0
01:16 1022 30.18 852 25.16 11.5 52.7 46 0.5 32.9 0
01:17 1022 30.18 852 25.16 11.6 52.9 46 0.6 33 0
01:18 1022 30.18 852 25.16 11.8 53.2 46 0.4 32.8 0
01:19 1022 30.18 852 25.16 11.8 53.2 46 0.6 33.1 0
01:20 1022 30.18 852 25.16 11.7 53.1 46 0.7 33.3 0
01:21 1022 30.18 852 25.16 11.7 53 46 0.5 32.9 0
01:22 1022 30.18 852 25.16 11.7 53 46 0.6 33 0
01:23 1022 30.18 852 25.16 11.6 52.9 47 0.7 33.3 0
01:24 1022 30.18 852 25.16 11.5 52.7 48 0.8 33.5 0
01:25 1022 30.18 852 25.16 11.4 52.5 48 0.7 33.3 0
01:26 1022 30.18 852 25.16 11.2 52.2 49 0.9 33.6 0
01:27 1022 30.18 852 25.16 11.2 52.1 47 0.5 32.8 0
01:28 1022 30.18 852 25.16 11.2 52.2 49 0.9 33.5 0
01:29 1022 30.18 852 25.16 11.2 52.1 48 0.7 33.3 0
01:30 1022 30.18 852 25.16 11.1 52.1 49 0.8 33.5 0
01:31 1022 30.18 852 25.16 11.1 52 48 0.6 33 0
01:32 1022 30.18 852 25.16 11.1 52.1 48 0.6 33 0
01:33 1022 30.18 852 25.16 11.1 52 49 0.8 33.4 0
01:34 1022 30.18 852 25.16 11.1 51.9 50 1 33.8 0
01:35 1022 30.18 852 25.16 10.9 51.7 50 1 33.8 0
01:36 1022 30.18 852 25.16 10.8 51.4 51 1.1 34 0
01:37 1022 30.18 852 25.16 10.6 51.1 50 0.7 33.3 0
01:38 1022 30.18 852 25.16 10.7 51.2 50 0.7 33.2 0
01:39 1022 30.18 852 25.16 10.7 51.3 50 0.7 33.2 0
01:40 1022 30.18 852 25.16 10.8 51.4 50 0.9 33.6 0
01:41 1022 30.18 852 25.16 10.7 51.2 50 0.8 33.5 0
01:42 1022 30.18 852 25.16 10.6 51.1 52 1.1 33.9 0
01:43 1022 30.18 852 25.16 10.5 50.8 52 1 33.8 0
01:44 1022 30.18 852 25.16 10.4 50.6 51 0.7 33.3 0
01:45 1022 30.18 852 25.16 10.4 50.8 50 0.5 33 0
01:46 1022 30.18 852 25.16 10.6 51.1 50 0.5 32.9 0
01:47 1022 30.18 852 25.16 10.7 51.2 50 0.6 33.1 0
01:48 1022 30.18 852 25.16 10.7 51.2 49 0.4 32.8 0
01:49 1022 30.18 852 25.16 10.8 51.4 49 0.5 32.9 0
01:50 1022 30.18 852 25.16 10.8 51.5 49 0.7 33.2 0
01:51 1022 30.18 852 25.16 10.8 51.4 49 0.6 33.1 0
01:52 1022 30.18 852 25.16 10.7 51.3 49 0.5 33 0
01:53 1022 30.18 852 25.16 10.8 51.4 50 0.7 33.2 0
01:54 1022 30.18 852 25.16 10.7 51.2 50 0.6 33.1 0
01:55 1022 30.18 852 25.16 10.6 51.1 50 0.7 33.3 0
01:56 1022 30.18 852 25.16 10.4 50.7 52 1 33.7 0
01:57 1022 30.18 852 25.16 10.1 50.2 53 1.1 34 0
01:58 1022 30.18 852 25.16 9.7 49.5 55 1 33.9 0
01:59 1022 30.18 852 25.16 9.4 49 56 1.2 34.1 0
02:00 1022 30.18 852 25.16 9.1 48.4 57 1 33.8 0
02:01 1022 30.18 852 25.16 9 48.2 57 1 33.8 0
02:02 1022 30.18 852 25.16 8.9 48.1 56 0.6 33.1 0
02:03 1022 30.18 852 25.16 9 48.3 55 0.6 33.1 0
02:04 1022 30.18 852 25.16 9.1 48.4 54 0.4 32.7 0
02:05 1022 30.18 852 25.16 9.2 48.5 53 0.3 32.5 0
02:06 1022 30.18 852 25.16 9.3 48.8 53 0.4 32.6 0
02:07 1022 30.18 852 25.16 9.4 48.8 54 0.4 32.8 0
02:08 1022 30.18 852 25.16 9.4 48.8 54 0.5 32.9 0
02:09 1022 30.18 852 25.16 9.3 48.8 54 0.6 33.1 0
02:10 1022 30.18 852 25.16 9.2 48.6 55 0.7 33.2 0
02:11 1022 30.18 852 25.16 9.1 48.4 56 0.8 33.4 0
02:12 1022 30.18 852 25.16 9 48.3 56 0.7 33.2 0
02:13 1022 30.18 852 25.16 8.9 48.1 57 0.8 33.4 0
02:14 1022 30.18 852 25.16 8.9 48 58 1.1 34 0
02:15 1022 30.18 852 25.16 8.7 47.7 58 0.9 33.6 0
02:16 1022 30.18 852 25.16 8.7 47.6 57 0.8 33.4 0
02:17 1022 30.18 852 25.16 8.6 47.5 58 0.8 33.4 0
02:18 1022 30.18 852 25.16 8.6 47.5 57 0.5 33 0
02:19 1022 30.18 852 25.16 8.7 47.6 57 0.6 33 0
02:20 1022 30.18 852 25.16 8.9 47.9 55 0.4 32.7 0
02:21 1022 30.18 852 25.16 9 48.2 54 0.2 32.4 0
02:22 1022 30.18 852 25.16 9.3 48.7 53 0.2 32.4 0
02:23 1022 30.18 852 25.16 9.4 48.9 52 0.2 32.3 0
02:24 1022 30.18 852 25.16 9.6 49.3 51 0 32.1 0
02:25 1022 30.18 852 25.16 9.8 49.7 51 0.1 32.2 0
02:26 1022 30.18 852 25.16 10 49.9 50 0.2 32.3 0
02:27 1022 30.18 852 25.16 10 50 50 0.1 32.3 0
02:28 1022 30.18 852 25.16 10 50.1 50 0 32 0
02:29 1022 30.18 852 25.16 10.2 50.4 49 -0.1 31.9 0
02:30 1022 30.18 852 25.16 10.4 50.7 48 -0.2 31.7 0
02:31 1022 30.18 852 25.16 10.5 50.9 48 -0.1 31.8 0
02:32 1022 30.18 852 25.16 10.6 51.1 47 -0.3 31.5 0
02:33 1022 30.18 852 25.16 10.6 51.2 47 -0.1 31.8 0
02:34 1022 30.18 852 25.16 10.6 51.1 47 -0.1 31.7 0
02:35 1022 30.18 852 25.16 10.6 51.2 48 0.2 32.3 0
02:36 1022 30.18 852 25.16 10.6 51 48 -0 32 0
02:37 1022 30.18 852 25.16 10.6 51 48 -0 31.9 0
02:38 1022 30.18 852 25.16 10.6 51 48 0.1 32.2 0
02:39 1022 30.18 852 25.16 10.5 50.9 49 0.3 32.5 0
02:40 1022 30.18 852 25.16 10.4 50.7 49 0.3 32.5 0
02:41 1022 30.18 852 25.16 10.3 50.5 49 0.1 32.1 0
02:42 1022 30.18 852 25.16 10.3 50.6 49 0 32 0
02:43 1022 30.18 852 25.16 10.4 50.7 48 -0.1 31.7 0
02:44 1022 30.18 852 25.16 10.5 50.9 48 -0 32 0
02:45 1022 30.18 852 25.16 10.5 50.9 49 0.3 32.5 0
02:46 1022 30.18 852 25.16 10.4 50.7 49 0.1 32.2 0
02:47 1022 30.18 852 25.16 10.4 50.6 48 -0 32 0
02:48 1022 30.18 852 25.16 10.2 50.4 50 0.2 32.4 0
02:49 1022 30.18 852 25.16 10 50 49 -0.1 31.9 0
02:50 1022 30.18 852 25.16 9.9 49.9 50 0.1 32.3 0
02:51 1022 30.18 852 25.16 9.9 49.8 53 0.7 33.3 0
02:52 1022 30.18 852 25.16 9.6 49.3 53 0.5 32.9 0
02:53 1022 30.18 852 25.16 9.5 49 53 0.3 32.6 0
02:54 1022 30.18 852 25.16 9.4 48.9 55 0.9 33.6 0
02:55 1022 30.18 852 25.16 9 48.2 54 0.2 32.4 0
02:56 1022 30.18 852 25.16 8.9 48 56 0.6 33.1 0
02:57 1022 30.18 852 25.16 8.9 48 53 -0.1 31.8 0
02:58 1022 30.18 851 25.13 9.2 48.6 51 -0.4 31.3 0
02:59 1022 30.18 851 25.13 9.6 49.2 49 -0.6 31 0
03:00 1022 30.18 851 25.13 9.9 49.7 49 -0.3 31.5 0
03:01 1022 30.18 851 25.13 9.9 49.9 50 0.1 32.2 0
03:02 1022 30.18 851 25.13 9.7 49.5 52 0.3 32.5 0
03:03 1022 30.18 851 25.13 9.5 49.1 53 0.3 32.6 0
03:04 1022 30.18 851 25.13 9.3 48.7 55 0.7 33.2 0
03:05 1022 30.18 851 25.13 8.9 48.1 54 0.3 32.5 0
03:06 1022 30.18 851 25.13 9 48.2 52 -0.3 31.5 0
03:07 1022 30.18 851 25.13 9.1 48.4 52 -0.1 31.8 0
03:08 1022 30.18 851 25.13 9.1 48.3 56 0.7 33.2 0
03:09 1022 30.18 851 25.13 8.7 47.7 56 0.5 32.9 0
03:10 1022 30.18 851 25.13 8.3 47 57 0.4 32.7 0
03:11 1022 30.18 851 25.13 8.1 46.7 58 0.4 32.7 0
03:12 1022 30.18 851 25.13 8 46.4 59 0.5 32.8 0
03:13 1022 30.18 851 25.13 8 46.3 59 0.4 32.8 0
03:14 1022 30.18 851 25.13 8.1 46.5 57 0.1 32.3 0
03:15 1022 30.18 851 25.13 8.3 47 57 0.3 32.6 0
03:16 1022 30.18 851 25.13 8.5 47.4 56 0.3 32.5 0
03:17 1022 30.18 851 25.13 8.7 47.6 56 0.4 32.6 0
03:18 1022 30.18 851 25.13 8.8 47.8 56 0.6 33 0
03:19 1022 30.18 851 25.13 8.7 47.7 56 0.3 32.6 0
03:20 1022 30.18 851 25.13 8.8 47.8 55 0.3 32.6 0
03:21 1022 30.18 851 25.13 8.9 48 55 0.3 32.5 0
03:22 1022 30.18 851 25.13 9 48.2 53 -0.1 31.8 0
03:23 1022 30.18 851 25.13 9.2 48.5 53 0.1 32.1 0
03:24 1022 30.18 851 25.13 9.3 48.7 52 -0.1 31.8 0
03:25 1022 30.18 851 25.13 9.4 48.9 51 -0.1 31.7 0
03:26 1022 30.18 851 25.13 9.5 49.1 51 -0.1 31.8 0
03:27 1022 30.18 851 25.13 9.6 49.2 51 0.1 32.2 0
03:28 1022 30.18 851 25.13 9.6 49.2 52 0.2 32.4 0
03:29 1022 30.18 851 25.13 9.5 49 54 0.6 33.1 0
03:30 1022 30.18 851 25.13 9.2 48.5 53 0.1 32.3 0
03:31 1022 30.18 851 25.13 9.1 48.4 52 -0.2 31.7 0
03:32 1022 30.18 851 25.13 9.4 48.9 51 -0.3 31.5 0
03:33 1022 30.18 851 25.13 9.5 49.1 50 -0.4 31.2 0
03:34 1022 30.18 851 25.13 9.8 49.6 49 -0.5 31.1 0
03:35 1022 30.18 851 25.13 9.9 49.9 49 -0.3 31.4 0
03:36 1022 30.18 852 25.16 10 50 48 -0.5 31.1 0
03:37 1022 30.18 852 25.16 10 50.1 47 -0.6 30.9 0
03:38 1022 30.18 852 25.16 10.2 50.3 47 -0.6 30.8 0
03:39 1022 30.18 852 25.16 10.3 50.5 48 -0.3 31.5 0
03:40 1022 30.18 852 25.16 10 50.1 52 0.6 33.1 0
03:41 1022 30.18 852 25.16 9.4 48.9 54 0.5 32.9 0
03:42 1022 30.18 852 25.16 9 48.2 54 0.2 32.4 0
03:43 1022 30.18 852 25.16 8.9 47.9 55 0.4 32.7 0
03:44 1022 30.18 852 25.16 8.7 47.6 55 0.2 32.3 0
03:45 1022 30.18 852 25.16 8.8 47.8 54 0.1 32.2 0
03:46 1022 30.18 852 25.16 9 48.1 55 0.4 32.8 0
03:47 1022 30.18 852 25.16 8.9 48.1 54 0 32.1 0
03:48 1022 30.18 852 25.16 8.9 48.1 54 0.1 32.2 0
03:49 1022 30.18 852 25.16 9.1 48.4 52 -0.2 31.7 0
03:50 1022 30.18 852 25.16 9.4 48.8 51 -0.2 31.6 0
03:51 1022 30.18 852 25.16 9.5 49.1 50 -0.3 31.4 0
03:52 1022 30.18 852 25.16 9.7 49.4 49 -0.4 31.2 0
03:53 1022 30.18 852 25.16 9.8 49.7 48 -0.7 30.8 0
03:54 1022 30.18 852 25.16 10.1 50.2 46 -0.8 30.5 0
03:55 1022 30.18 852 25.16 10.4 50.6 46 -0.7 30.7 0
03:56 1022 30.18 852 25.16 10.5 50.9 45 -0.9 30.5 0
03:57 1022 30.18 852 25.16 10.7 51.2 44 -1 30.2 0
03:58 1023 30.21 852 25.16 10.9 51.6 43 -1 30.1 0
03:59 1023 30.21 852 25.16 11 51.8 42 -1.2 29.8 0
04:00 1023 30.21 852 25.16 11.1 52 42 -1.2 29.8 0
04:01 1023 30.21 852 25.16 11.4 52.5 42 -1.1 29.9 0
04:02 1023 30.21 852 25.16 11.5 52.6 42 -1 30.2 0
04:03 1023 30.21 852 25.16 11.4 52.6 42 -0.9 30.4 0
04:04 1023 30.21 852 25.16 11.3 52.3 42 -1.2 29.8 0
04:05 1023 30.21 852 25.16 11.3 52.3 43 -0.7 30.7 0
04:06 1023 30.21 852 25.16 11.2 52.2 43 -1 30.3 0
04:07 1023 30.21 852 25.16 11.1 52 45 -0.4 31.2 0
04:08 1023 30.21 852 25.16 10.7 51.3 46 -0.4 31.3 0
04:09 1023 30.21 852 25.16 10.4 50.6 47 -0.4 31.2 0
04:10 1023 30.21 852 25.16 10 50.1 49 -0.3 31.5 0
04:11 1022 30.18 852 25.16 9.7 49.4 50 -0.2 31.6 0
04:12 1022 30.18 852 25.16 9.4 48.8 51 -0.3 31.5 0
04:13 1022 30.18 852 25.16 9.1 48.4 51 -0.4 31.3 0
04:14 1022 30.18 852 25.16 9.1 48.4 51 -0.6 31 0
04:15 1022 30.18 852 25.16 9.2 48.6 51 -0.3 31.5 0
04:16 1023 30.21 852 25.16 9.2 48.6 50 -0.5 31.1 0
04:17 1023 30.21 852 25.16 9.3 48.7 51 -0.2 31.6 0
04:18 1023 30.21 852 25.16 9 48.3 53 -0.1 31.9 0
04:19 1023 30.21 852 25.16 8.8 47.9 53 -0.2 31.6 0
04:20 1023 30.21 852 25.16 8.8 47.8 53 -0.1 31.8 0
04:21 1023 30.21 852 25.16 8.7 47.7 54 -0.1 31.9 0
04:22 1023 30.21 852 25.16 8.6 47.5 54 -0.2 31.6 0
04:23 1023 30.21 852 25.16 8.5 47.4 55 0.1 32.2 0
04:24 1022 30.18 852 25.16 8.4 47.2 54 -0.3 31.4 0
04:25 1022 30.18 852 25.16 8.5 47.3 53 -0.5 31 0
04:26 1022 30.18 852 25.16 8.8 47.8 52 -0.6 30.9 0
04:27 1022 30.18 852 25.16 9.1 48.3 52 -0.3 31.5 0
04:28 1022 30.18 852 25.16 9.2 48.6 51 -0.3 31.5 0
04:29 1022 30.18 852 25.16 9.3 48.7 51 -0.2 31.6 0
04:30 1022 30.18 852 25.16 9.2 48.6 51 -0.3 31.5 0
04:31 1022 30.18 852 25.16 9.3 48.7 51 -0.3 31.5 0
04:32 1022 30.18 852 25.16 9.4 48.9 50 -0.5 31.1 0
04:33 1022 30.18 852 25.16 9.5 49.2 50 -0.4 31.2 0
04:34 1022 30.18 852 25.16 9.6 49.2 51 -0.1 31.8 0
04:35 1022 30.18 852 25.16 9.5 49.1 51 -0 31.9 0
04:36 1022 30.18 852 25.16 9.3 48.8 51 -0.2 31.7 0
04:37 1022 30.18 852 25.16 9.3 48.7 51 -0.2 31.6 0
04:38 1022 30.18 852 25.16 9.2 48.5 53 0 32 0
04:39 1022 30.18 852 25.16 9.1 48.3 53 0 32.1 0
04:40 1022 30.18 852 25.16 9 48.2 53 -0.1 31.8 0
04:41 1023 30.21 852 25.16 8.9 48 53 -0.2 31.6 0
04:42 1023 30.21 852 25.16 8.9 48.1 52 -0.2 31.6 0
04:43 1023 30.21 852 25.16 8.9 48.1 53 -0 32 0
04:44 1023 30.21 852 25.16 8.9 48 53 -0.1 31.8 0
04:45 1023 30.21 852 25.16 8.9 48 53 -0.1 31.8 0
04:46 1023 30.21 852 25.16 8.9 47.9 53 -0.1 31.8 0
04:47 1023 30.21 852 25.16 8.8 47.9 53 -0.2 31.6 0
04:48 1023 30.21 852 25.16 8.9 48 53 -0.1 31.8 0
04:49 1023 30.21 852 25.16 8.9 48.1 53 -0.1 31.7 0
04:50 1023 30.21 852 25.16 8.9 48 54 0 32 0
04:51 1023 30.21 852 25.16 8.8 47.8 53 -0.2 31.6 0
04:52 1023 30.21 852 25.16 8.8 47.8 53 -0.2 31.7 0
04:53 1022 30.18 852 25.16 8.7 47.7 54 -0 32 0
04:54 1023 30.21 852 25.16 8.6 47.4 56 0.2 32.4 0
04:55 1023 30.21 852 25.16 8.3 47 56 0.2 32.3 0
04:56 1022 30.18 852 25.16 8.1 46.6 57 0.2 32.4 0
04:57 1022 30.18 852 25.16 7.9 46.3 57 0.1 32.2 0
04:58 1022 30.18 852 25.16 7.9 46.2 56 -0.2 31.6 0
04:59 1022 30.18 852 25.16 8.1 46.6 55 -0.3 31.4 0
05:00 1022 30.18 852 25.16 8.2 46.8 55 -0.2 31.6 0
05:01 1022 30.18 852 25.16 8.3 47 55 -0.3 31.5 0
05:02 1022 30.18 852 25.16 8.4 47.2 54 -0.3 31.4 0
05:03 1022 30.18 852 25.16 8.5 47.3 55 0 32.1 0
05:04 1022 30.18 852 25.16 8.4 47 55 -0.1 31.8 0
05:05 1022 30.18 852 25.16 8.3 47 55 -0.1 31.9 0
05:06 1023 30.21 852 25.16 8.3 46.9 55 -0.1 31.8 0
05:07 1023 30.21 852 25.16 8.3 47 54 -0.3 31.4 0
05:08 1023 30.21 852 25.16 8.5 47.2 54 -0.4 31.3 0
05:09 1023 30.21 852 25.16 8.6 47.5 52 -0.7 30.8 0
05:10 1023 30.21 852 25.16 8.8 47.9 51 -0.7 30.8 0
05:11 1023 30.21 852 25.16 9 48.3 51 -0.6 30.9 0
05:12 1023 30.21 852 25.16 9.1 48.4 51 -0.4 31.2 0
05:13 1023 30.21 852 25.16 9.1 48.4 51 -0.5 31.1 0
05:14 1023 30.21 852 25.16 9.2 48.5 50 -0.6 30.9 0
05:15 1023 30.21 852 25.16 9.3 48.7 50 -0.5 31.2 0
05:16 1023 30.21 852 25.16 9.3 48.8 51 -0.4 31.4 0
05:17 1023 30.21 852 25.16 9.4 48.9 50 -0.4 31.3 0
05:18 1023 30.21 852 25.16 9.4 49 50 -0.5 31.1 0
05:19 1023 30.21 852 25.16 9.5 49.1 50 -0.3 31.4 0
05:20 1023 30.21 852 25.16 9.5 49.1 50 -0.4 31.3 0
05:21 1023 30.21 852 25.16 9.5 49 50 -0.3 31.4 0
05:22 1023 30.21 852 25.16 9.3 48.8 50 -0.6 31 0
05:23 1023 30.21 852 25.16 9.4 49 51 -0 32 0
05:24 1023 30.21 852 25.16 9 48.2 56 0.7 33.3 0
05:25 1023 30.21 852 25.16 8.3 46.9 59 0.8 33.4 0
05:26 1023 30.21 852 25.16 7.7 45.8 62 0.8 33.4 0
05:27 1023 30.21 852 25.16 7.3 45.1 62 0.5 32.8 0
05:28 1023 30.21 852 25.16 7.2 45 60 0.1 32.2 0
05:29 1023 30.21 852 25.16 7.4 45.4 59 -0.1 31.9 0
05:30 1023 30.21 852 25.16 7.6 45.6 58 -0.1 31.9 0
05:31 1023 30.21 852 25.16 7.6 45.7 58 -0.2 31.7 0
05:32 1023 30.21 852 25.16 7.5 45.5 61 0.5 32.9 0
05:33 1023 30.21 852 25.16 7.2 44.9 61 0.1 32.3 0
05:34 1023 30.21 852 25.16 7.2 45 60 -0 31.9 0
05:35 1023 30.21 852 25.16 7.4 45.2 58 -0.4 31.3 0
05:36 1023 30.21 852 25.16 7.6 45.7 59 0.1 32.1 0
05:37 1023 30.21 852 25.16 7.6 45.6 59 0.1 32.1 0
05:38 1023 30.21 852 25.16 7.5 45.4 60 0.2 32.4 0
05:39 1023 30.21 852 25.16 7.6 45.6 59 -0 32 0
05:40 1023 30.21 852 25.16 7.8 46 57 -0.2 31.7 0
05:41 1023 30.21 852 25.16 7.9 46.3 57 -0.1 31.8 0
05:42 1023 30.21 852 25.16 7.9 46.2 58 0.2 32.3 0
05:43 1023 30.21 852 25.16 7.7 45.9 58 0 32.1 0
05:44 1023 30.21 852 25.16 7.7 45.8 58 -0 32 0
05:45 1023 30.21 852 25.16 7.6 45.7 59 0.2 32.3 0
05:46 1023 30.21 852 25.16 7.5 45.5 59 0.1 32.1 0
05:47 1023 30.21 852 25.16 7.5 45.5 60 0.1 32.3 0
05:48 1023 30.21 852 25.16 7.4 45.3 60 0.1 32.2 0
05:49 1023 30.21 852 25.16 7.3 45.1 61 0.3 32.5 0
05:50 1023 30.21 852 25.16 7 44.7 62 0.3 32.6 0
05:51 1023 30.21 852 25.16 6.8 44.3 63 0.2 32.4 0
05:52 1023 30.21 852 25.16 6.8 44.2 63 0.1 32.2 0
05:53 1023 30.21 852 25.16 6.8 44.3 62 0.2 32.3 0
05:54 1023 30.21 852 25.16 6.9 44.3 63 0.3 32.5 0
05:55 1023 30.21 852 25.16 6.9 44.5 62 0.1 32.2 0
05:56 1023 30.21 852 25.16 7.1 44.8 61 0 32.1 0
05:57 1023 30.21 852 25.16 7.4 45.2 59 -0.1 31.9 0
05:58 1023 30.21 852 25.16 7.6 45.6 59 0 32 0
05:59 1023 30.21 852 25.16 7.8 46 58 -0 32 0
06:00 1023 30.21 852 25.16 8 46.5 55 -0.4 31.3 0
06:01 1023 30.21 852 25.16 8.4 47.2 54 -0.4 31.2 0
06:02 1023 30.21 852 25.16 8.8 47.8 53 -0.3 31.4 0
06:03 1022 30.18 852 25.16 9.1 48.3 52 -0.2 31.6 0
06:04 1022 30.18 852 25.16 9.3 48.7 52 -0 32 0
06:05 1022 30.18 852 25.16 9.3 48.7 53 0.1 32.2 0
06:06 1023 30.21 852 25.16 9.4 48.8 53 0.2 32.4 0
06:07 1023 30.21 852 25.16 9.4 48.9 52 0.1 32.3 0
06:08 1023 30.21 852 25.16 9.5 49.1 52 0.1 32.2 0
06:09 1023 30.21 852 25.16 9.7 49.4 49 -0.4 31.4 0
06:10 1023 30.21 852 25.16 9.9 49.8 49 -0.3 31.4 0
06:11 1023 30.21 852 25.16 10.1 50.2 48 -0.3 31.5 0
06:12 1023 30.21 852 25.16 10.2 50.4 48 -0.2 31.7 0
06:13 1023 30.21 852 25.16 10.2 50.3 49 0.1 32.2 0
06:14 1023 30.21 852 25.16 10.2 50.3 49 -0.1 31.8 0
06:15 1023 30.21 852 25.16 10.3 50.5 49 0.1 32.1 0
06:16 1023 30.21 852 25.16 10.3 50.5 48 -0.1 31.9 0
06:17 1023 30.21 852 25.16 10.4 50.7 46 -0.6 31 0
06:18 1023 30.21 852 25.16 10.7 51.2 45 -0.6 30.9 0
06:19 1023 30.21 852 25.16 10.9 51.7 46 -0.3 31.5 0
06:20 1023 30.21 852 25.16 11 51.8 45 -0.3 31.4 0
06:21 1023 30.21 852 25.16 11.1 52 45 -0.5 31.1 0
06:22 1023 30.21 852 25.16 11.1 52.1 46 -0 31.9 0
06:23 1023 30.21 852 25.16 11.1 52 45 -0.3 31.5 0
06:24 1023 30.21 852 25.16 11.1 52 47 0.2 32.4 0
06:25 1023 30.21 852 25.16 11 51.8 47 0.1 32.3 0
06:26 1023 30.21 852 25.16 10.9 51.7 47 0 32.1 0
06:27 1023 30.21 852 25.16 10.9 51.6 48 0.5 32.9 0
06:28 1023 30.21 852 25.16 10.8 51.5 46 -0.2 31.6 0
06:29 1023 30.21 852 25.16 10.8 51.5 47 0 32 0
06:30 1023 30.21 852 25.16 10.9 51.6 46 -0.1 31.8 0
06:31 1023 30.21 852 25.16 10.9 51.7 46 -0.2 31.7 0
06:32 1023 30.21 852 25.16 11 51.8 47 0.2 32.4 0
06:33 1023 30.21 852 25.16 10.9 51.7 46 -0.1 31.9 0
06:34 1023 30.21 852 25.16 10.9 51.7 47 0.2 32.3 0
06:35 1023 30.21 852 25.16 10.9 51.7 48 0.5 32.8 0
06:36 1023 30.21 852 25.16 10.9 51.5 48 0.3 32.6 0
06:37 1023 30.21 852 25.16 10.9 51.5 48 0.2 32.4 0
06:38 1023 30.21 852 25.16 10.8 51.5 49 0.6 33.1 0
06:39 1023 30.21 852 25.16 10.9 51.6 48 0.5 32.9 0
06:40 1022 30.18 852 25.16 10.9 51.6 48 0.3 32.6 0
06:41 1023 30.21 852 25.16 11 51.8 49 0.7 33.3 0
06:42 1023 30.21 852 25.16 11 51.8 49 0.7 33.2 0
06:43 1023 30.21 852 25.16 11 51.8 48 0.6 33 0
06:44 1023 30.21 852 25.16 11 51.8 49 0.8 33.4 0
06:45 1023 30.21 852 25.16 10.9 51.7 50 1 33.8 0
06:46 1023 30.21 852 25.16 10.9 51.5 50 1 33.8 0
06:47 1023 30.21 852 25.16 10.9 51.6 52 1.3 34.4 0
06:48 1023 30.21 852 25.16 10.9 51.5 52 1.4 34.5 0
06:49 1023 30.21 852 25.16 10.8 51.5 53 1.6 34.8 0
06:50 1023 30.21 852 25.16 10.7 51.3 55 2 35.6 0
06:51 1023 30.21 852 25.16 10.8 51.4 53 1.5 34.8 0
06:52 1023 30.21 852 25.16 10.8 51.5 54 1.9 35.5 0
06:53 1023 30.21 852 25.16 10.9 51.6 53 1.7 35 0
06:54 1023 30.21 852 25.16 11.1 51.9 51 1.3 34.4 0
06:55 1023 30.21 852 25.16 11.3 52.3 50 1.3 34.4 0
06:56 1023 30.21 852 25.16 11.4 52.5 51 1.7 35.1 0
06:57 1023 30.21 852 25.16 11.5 52.6 50 1.6 34.9 0
06:58 1023 30.21 852 25.16 11.6 52.8 50 1.7 35 0
06:59 1023 30.21 852 25.16 11.7 53 50 1.6 34.9 0
07:00 1023 30.21 852 25.16 11.8 53.2 50 1.9 35.4 0
07:01 1023 30.21 852 25.16 11.8 53.3 50 1.8 35.2 0
07:02 1023 30.21 852 25.16 11.9 53.5 48 1.3 34.4 0
07:03 1023 30.21 852 25.16 12 53.6 51 2.3 36.2 0
07:04 1023 30.21 852 25.16 12.1 53.7 51 2.3 36.1 0
07:05 1023 30.21 852 25.16 12.1 53.7 52 2.5 36.4 0
07:06 1023 30.21 852 25.16 12.1 53.7 51 2.2 36 0
07:07 1023 30.21 852 25.16 12.1 53.9 51 2.3 36.1 0
07:08 1023 30.21 852 25.16 12.2 53.9 52 2.7 36.8 0
07:09 1023 30.21 852 25.16 12.2 54 53 2.9 37.2 0
07:10 1023 30.21 852 25.16 12.3 54.2 52 2.8 37.1 0
07:11 1023 30.21 852 25.16 12.4 54.3 50 2.3 36.1 0
07:12 1023 30.21 852 25.16 12.5 54.6 51 2.9 37.2 0
07:13 1023 30.21 852 25.16 12.7 54.8 51 2.9 37.1 0
07:14 1023 30.21 852 25.16 12.8 55 51 2.9 37.2 0
07:15 1023 30.21 852 25.16 12.9 55.1 51 2.9 37.3 0
07:16 1023 30.21 852 25.16 13 55.3 49 2.6 36.7 0
07:17 1023 30.21 852 25.16 13 55.4 52 3.4 38.2 0
07:18 1023 30.21 852 25.16 13.1 55.5 51 3.3 38 0
07:19 1023 30.21 852 25.16 13.1 55.6 53 3.9 39 0
07:20 1023 30.21 852 25.16 13.3 55.9 53 4.1 39.3 0
07:21 1023 30.21 852 25.16 13.4 56.1 50 3.4 38 0
07:22 1023 30.21 852 25.16 13.5 56.3 52 4 39.2 0
07:23 1023 30.21 852 25.16 13.6 56.4 50 3.4 38 0
07:24 1023 30.21 852 25.16 13.7 56.6 49 3.3 38 0
07:25 1023 30.21 852 25.16 13.8 56.8 47 2.7 36.9 0
07:26 1023 30.21 852 25.16 13.9 57 45 2.2 36 0
07:27 1023 30.21 852 25.16 14 57.1 46 2.6 36.7 0
07:28 1023 30.21 852 25.16 14.1 57.3 46 2.8 37 0
07:29 1023 30.21 852 25.16 14.3 57.7 49 3.7 38.7 0
07:30 1023 30.21 852 25.16 14.4 58 48 3.8 38.8 0
07:31 1023 30.21 852 25.16 14.5 58.2 48 3.8 38.9 0
07:32 1023 30.21 852 25.16 14.7 58.4 49 4.2 39.5 0
07:33 1023 30.21 852 25.16 14.8 58.6 48 4 39.2 0
07:34 1023 30.21 852 25.16 15 58.9 48 4.1 39.4 0
07:35 1023 30.21 852 25.16 15.1 59.1 47 3.9 38.9 0
07:36 1023 30.21 852 25.16 15.2 59.3 47 3.9 39 0
07:37 1023 30.21 852 25.16 15.2 59.3 44 3.3 37.9 0
07:38 1023 30.21 852 25.16 15.2 59.3 45 3.3 37.9 0
07:39 1023 30.21 852 25.16 15.2 59.4 47 4.2 39.5 0
07:40 1023 30.21 852 25.16 15.3 59.5 43 2.8 37.1 0
07:41 1023 30.21 852 25.16 15.2 59.4 45 3.4 38.2 0
07:42 1023 30.21 852 25.16 15.2 59.3 44 3.3 37.9 0
07:43 1023 30.21 852 25.16 15.1 59.2 49 4.4 40 0
07:44 1023 30.21 852 25.16 15 59.1 53 5.7 42.2 0
07:45 1023 30.21 852 25.16 15 58.9 53 5.6 42 0
07:46 1023 30.21 852 25.16 14.8 58.7 54 5.8 42.5 0
07:47 1023 30.21 852 25.16 14.7 58.5 54 5.5 42 0
07:48 1023 30.21 852 25.16 14.6 58.2 54 5.6 42 0
07:49 1023 30.21 852 25.16 14.6 58.2 59 6.6 43.9 0
07:50 1023 30.21 852 25.16 14.5 58.1 53 5.1 41.3 0
07:51 1023 30.21 852 25.16 14.5 58 56 5.9 42.6 0
07:52 1023 30.21 852 25.16 14.5 58.1 54 5.2 41.4 0
07:53 1023 30.21 852 25.16 14.5 58.1 54 5.4 41.8 0
07:54 1023 30.21 852 25.16 14.5 58.2 49 4 39.1 0
07:55 1023 30.21 852 25.16 14.6 58.4 47 3.4 38.2 0
07:56 1023 30.21 852 25.16 14.8 58.6 45 3 37.5 0
07:57 1023 30.21 852 25.16 14.8 58.7 47 3.7 38.7 0
07:58 1023 30.21 852 25.16 14.9 58.8 51 5 41 0
07:59 1023 30.21 852 25.16 14.9 58.8 45 3.3 38 0
08:00 1023 30.21 852 25.16 15 58.9 49 4.5 40.1 0
08:01 1023 30.21 852 25.16 15 59.1 46 3.7 38.7 0
08:02 1023 30.21 852 25.16 15.1 59.1 47 4 39.2 0
08:03 1023 30.21 852 25.16 15.1 59.2 48 4.3 39.8 0
08:04 1023 30.21 852 25.16 15.2 59.4 50 4.9 40.8 0
08:05 1023 30.21 852 25.16 15.3 59.6 51 5.4 41.7 0
08:06 1023 30.21 852 25.16 15.4 59.6 50 5.1 41.2 0
08:07 1023 30.21 852 25.16 15.4 59.7 48 4.7 40.4 0
08:08 1023 30.21 853 25.19 15.4 59.7 52 5.8 42.4 0
08:09 1023 30.21 853 25.19 15.4 59.8 54 6.3 43.3 0
08:10 1023 30.21 853 25.19 15.5 59.8 54 6.3 43.4 0
08:11 1023 30.21 853 25.19 15.5 59.8 51 5.5 41.9 0
08:12 1023 30.21 853 25.19 15.3 59.6 55 6.4 43.5 0
08:13 1024 30.24 853 25.19 15.2 59.3 49 4.8 40.6 0
08:14 1024 30.24 853 25.19 15.1 59.2 46 3.7 38.7 0
08:15 1024 30.24 853 25.19 15.1 59.1 49 4.6 40.3 0
08:16 1024 30.24 853 25.19 15.1 59.1 50 4.8 40.6 0
08:17 1024 30.24 853 25.19 15 59 49 4.6 40.2 0
08:18 1024 30.24 853 25.19 15 58.9 49 4.5 40.2 0
08:19 1024 30.24 853 25.19 15 58.9 48 4 39.3 0
08:20 1024 30.24 853 25.19 15 58.9 48 4.1 39.4 0
08:21 1024 30.24 853 25.19 14.9 58.8 48 4.1 39.4 0
08:22 1024 30.24 853 25.19 14.9 58.8 50 4.7 40.4 0
08:23 1024 30.24 853 25.19 14.8 58.7 49 4.4 39.9 0
08:24 1024 30.24 853 25.19 14.8 58.6 50 4.6 40.3 0
08:25 1024 30.24 853 25.19 14.7 58.4 51 4.9 40.8 0
08:26 1024 30.24 853 25.19 14.7 58.4 53 5.2 41.3 0
08:27 1024 30.24 853 25.19 14.6 58.2 55 5.7 42.3 0
08:28 1024 30.24 853 25.19 14.5 58.1 53 5.2 41.3 0
08:29 1024 30.24 853 25.19 14.5 58 55 5.7 42.2 0
08:30 1024 30.24 853 25.19 14.4 57.8 54 5.3 41.5 0
08:31 1024 30.24 853 25.19 14.4 57.9 56 5.9 42.6 0
08:32 1024 30.24 853 25.19 14.4 57.8 58 6.3 43.4 0
08:33 1024 30.24 853 25.19 14.3 57.7 57 6.1 43 0
08:34 1024 30.24 853 25.19 14.2 57.6 56 5.6 42 0
08:35 1024 30.24 853 25.19 14.2 57.6 58 6 42.9 0
08:36 1024 30.24 853 25.19 14.2 57.5 56 5.5 41.9 0
08:37 1024 30.24 853 25.19 14.2 57.6 56 5.6 42.1 0
08:38 1024 30.24 853 25.19 14.2 57.6 57 5.9 42.7 0
08:39 1024 30.24 853 25.19 14.3 57.7 58 6.3 43.3 0
08:40 1024 30.24 853 25.19 14.2 57.6 61 6.8 44.3 0
08:41 1024 30.24 853 25.19 14.2 57.6 61 6.9 44.4 0
08:42 1024 30.24 853 25.19 14.2 57.5 61 6.8 44.2 0
08:43 1024 30.24 853 25.19 14.2 57.6 61 6.8 44.2 0
08:44 1024 30.24 853 25.19 14.2 57.6 62 7.1 44.9 0
08:45 1024 30.24 853 25.19 14.3 57.7 60 6.6 43.9 0
08:46 1024 30.24 853 25.19 14.4 57.8 64 7.6 45.7 0
08:47 1024 30.24 853 25.19 14.4 57.9 61 7.1 44.8 0
08:48 1024 30.24 853 25.19 14.4 57.9 61 7 44.7 0
08:49 1024 30.24 853 25.19 14.4 58 56 5.9 42.6 0
08:50 1024 30.24 853 25.19 14.5 58.1 56 5.8 42.5 0
08:51 1024 30.24 853 25.19 14.7 58.4 53 5.2 41.4 0
08:52 1024 30.24 853 25.19 14.8 58.7 51 4.9 40.8 0
08:53 1024 30.24 853 25.19 15 59 50 4.7 40.5 0
08:54 1024 30.24 853 25.19 15.2 59.4 46 3.6 38.6 0
08:55 1024 30.24 853 25.19 15.4 59.8 45 3.6 38.4 0
08:56 1024 30.24 853 25.19 15.7 60.2 41 2.6 36.6 0
08:57 1024 30.24 853 25.19 15.9 60.7 47 4.6 40.3 0
08:58 1024 30.24 853 25.19 16.2 61.2 43 3.8 38.8 0
08:59 1024 30.24 853 25.19 16.4 61.6 43 3.9 39 0
09:00 1024 30.24 853 25.19 16.7 62 41 3.6 38.5 0
09:01 1024 30.24 853 25.19 16.9 62.4 38 2.6 36.6 0
09:02 1024 30.24 853 25.19 17 62.5 40 3.4 38 0
09:03 1024 30.24 853 25.19 16.9 62.4 39 3.1 37.6 0
09:04 1024 30.24 853 25.19 16.9 62.4 41 3.7 38.7 0
09:05 1024 30.24 853 25.19 16.9 62.4 38 2.6 36.7 0
09:06 1024 30.24 853 25.19 16.9 62.5 43 4.3 39.7 0
09:07 1024 30.24 853 25.19 17 62.5 42 4.1 39.4 0
09:08 1024 30.24 853 25.19 17 62.6 42 4.2 39.5 0
09:09 1024 30.24 853 25.19 17.1 62.7 43 4.5 40.1 0
09:10 1024 30.24 853 25.19 17.1 62.7 38 2.9 37.2 0
09:11 1024 30.24 853 25.19 17.1 62.7 39 3.1 37.5 0
09:12 1024 30.24 853 25.19 17.2 63 40 3.7 38.7 0
09:13 1024 30.24 853 25.19 17.2 63 40 3.5 38.4 0
09:14 1024 30.24 853 25.19 17.3 63.1 40 3.7 38.6 0
09:15 1024 30.24 853 25.19 17.4 63.3 42 4.4 40 0
09:16 1024 30.24 853 25.19 17.5 63.6 40 4 39.2 0
09:17 1024 30.24 853 25.19 17.7 63.8 41 4.3 39.8 0
09:18 1024 30.24 853 25.19 17.8 64 36 2.6 36.7 0
09:19 1024 30.24 853 25.19 17.8 64.1 37 3.2 37.8 0
09:20 1024 30.24 853 25.19 17.9 64.2 34 1.8 35.2 0
09:21 1024 30.24 853 25.19 17.9 64.3 34 2.2 35.9 0
09:22 1024 30.24 853 25.19 18 64.4 37 3.2 37.8 0
09:23 1024 30.24 853 25.19 18 64.4 38 3.6 38.5 0
09:24 1024 30.24 853 25.19 18.1 64.6 35 2.6 36.7 0
09:25 1024 30.24 853 25.19 18.1 64.6 34 2.1 35.7 0
09:26 1024 30.24 853 25.19 18.2 64.7 38 3.7 38.6 0
09:27 1024 30.24 853 25.19 18.3 64.9 32 1.6 34.9 0
09:28 1024 30.24 853 25.19 18.4 65.1 33 2 35.5 0
09:29 1024 30.24 853 25.19 18.5 65.2 31 1.3 34.4 0
09:30 1024 30.24 853 25.19 18.5 65.3 34 2.3 36.2 0
09:31 1024 30.24 853 25.19 18.7 65.7 27 -0.6 31 0
09:32 1024 30.24 853 25.19 18.9 66.1 31 1.4 34.6 0
09:33 1024 30.24 853 25.19 19.2 66.5 27 0 32 0
09:34 1024 30.24 853 25.19 19.3 66.7 33 2.7 36.8 0
09:35 1024 30.24 853 25.19 19.5 67 29 1.1 34 0
09:36 1024 30.24 853 25.19 19.5 67 29 1 33.8 0
09:37 1024 30.24 853 25.19 19.4 67 26 -0.3 31.5 0
09:38 1024 30.24 853 25.19 19.5 67.1 30 1.5 34.8 0
09:39 1024 30.24 853 25.19 19.7 67.4 27 0.5 33 0
09:40 1023 30.21 853 25.19 19.8 67.6 30 1.7 35 0
09:41 1023 30.21 853 25.19 19.8 67.7 25 -0.4 31.3 0
09:42 1023 30.21 853 25.19 19.9 67.8 28 0.8 33.4 0
09:43 1023 30.21 853 25.19 20 67.9 23 -1.6 29.2 0
09:44 1023 30.21 853 25.19 20.1 68.1 24 -0.8 30.5 0
09:45 1023 30.21 853 25.19 20.1 68.2 23 -1.7 28.9 0
09:46 1023 30.21 853 25.19 20.2 68.4 27 1 33.7 0
09:47 1023 30.21 853 25.19 20.3 68.6 26 0.3 32.5 0
09:48 1023 30.21 853 25.19 20.4 68.7 28 1.5 34.6 0
09:49 1023 30.21 853 25.19 20.5 68.9 24 -0.5 31.1 0
09:50 1023 30.21 853 25.19 20.7 69.2 25 -0.1 31.7 0
09:51 1023 30.21 853 25.19 20.9 69.6 23 -0.6 31 0
09:52 1023 30.21 853 25.19 21 69.8 25 0.2 32.4 0
09:53 1023 30.21 853 25.19 21.2 70.1 24 -0.2 31.7 0
09:54 1024 30.24 853 25.19 21.3 70.4 28 2.1 35.9 0
09:55 1024 30.24 853 25.19 21.3 70.3 24 0.1 32.2 0
09:56 1024 30.24 853 25.19 21.2 70.2 26 0.9 33.7 0
09:57 1024 30.24 853 25.19 21.2 70.2 23 -0.3 31.4 0
09:58 1024 30.24 853 25.19 21.2 70.1 22 -1.1 30.1 0
09:59 1023 30.21 853 25.19 21.1 70 23 -0.4 31.3 0
10:00 1023 30.21 853 25.19 21.2 70.2 29 2.7 36.9 0
10:01 1023 30.21 853 25.19 21.3 70.3 29 2.6 36.7 0
10:02 1023 30.21 853 25.19 21.5 70.6 27 2 35.6 0
10:03 1023 30.21 853 25.19 21.7 71 29 3 37.4 0
10:04 1024 30.24 853 25.19 21.9 71.4 25 1.1 34 0
10:05 1023 30.21 853 25.19 22.1 71.7 26 1.7 35.1 0
10:06 1023 30.21 853 25.19 22.1 71.7 23 -0.1 31.8 0
10:07 1023 30.21 853 25.19 21.9 71.3 25 0.9 33.6 0
10:08 1023 30.21 853 25.19 21.8 71.2 24 0.4 32.8 0
10:09 1023 30.21 853 25.19 21.8 71.2 24 0.7 33.2 0
10:10 1023 30.21 853 25.19 22 71.6 27 2.2 36 0
10:11 1023 30.21 853 25.19 22.1 71.7 24 0.9 33.7 0
10:12 1023 30.21 853 25.19 21.8 71.2 23 -0.2 31.6 0
10:13 1023 30.21 853 25.19 21.6 70.8 23 -0 31.9 0
10:14 1023 30.21 853 25.19 21.4 70.6 24 0.3 32.5 0
10:15 1023 30.21 853 25.19 21.5 70.6 24 0.4 32.7 0
10:16 1023 30.21 853 25.19 21.4 70.5 24 0.1 32.2 0
10:17 1023 30.21 852 25.16 21.4 70.5 25 0.6 33.1 0
10:18 1023 30.21 852 25.16 21.5 70.6 25 1 33.8 0
10:19 1023 30.21 853 25.19 21.4 70.4 26 1.2 34.2 0
10:20 1023 30.21 853 25.19 21.3 70.3 25 0.9 33.5 0
10:21 1023 30.21 852 25.16 21.2 70.1 28 2.2 35.9 0
10:22 1023 30.21 852 25.16 21.1 70 24 -0.2 31.7 0
10:23 1023 30.21 852 25.16 21 69.9 26 1.1 33.9 0
10:24 1023 30.21 852 25.16 20.9 69.7 24 -0.2 31.6 0
10:25 1023 30.21 852 25.16 20.9 69.5 25 0.2 32.3 0
10:26 1023 30.21 852 25.16 20.7 69.3 27 1.3 34.4 0
10:27 1023 30.21 852 25.16 20.6 69.2 31 3.1 37.6 0
10:28 1023 30.21 852 25.16 20.6 69.1 26 0.7 33.3 0
10:29 1023 30.21 852 25.16 20.5 68.9 30 2.4 36.3 0
10:30 1023 30.21 852 25.16 20.4 68.8 28 1.5 34.6 0
10:31 1023 30.21 852 25.16 20.3 68.5 29 1.7 35.1 0
10:32 1023 30.21 852 25.16 20.2 68.3 26 0.3 32.6 0
10:33 1023 30.21 852 25.16 20.1 68.3 28 1.1 34 0
10:34 1023 30.21 852 25.16 20.2 68.3 26 0.5 32.9 0
10:35 1023 30.21 852 25.16 20.3 68.5 27 0.9 33.6 0
10:36 1023 30.21 852 25.16 20.3 68.5 29 1.9 35.4 0
10:37 1023 30.21 852 25.16 20.3 68.6 25 -0.4 31.2 0
10:38 1023 30.21 852 25.16 20.5 68.8 30 2.4 36.4 0
10:39 1023 30.21 852 25.16 20.7 69.2 28 1.5 34.8 0
10:40 1023 30.21 852 25.16 20.9 69.7 28 2.1 35.7 0
10:41 1023 30.21 852 25.16 21.1 70 24 -0.2 31.6 0
10:42 1023 30.21 852 25.16 21.3 70.4 28 2.2 36 0
10:43 1023 30.21 852 25.16 21.6 70.8 26 1.4 34.6 0
10:44 1023 30.21 852 25.16 21.7 71.1 28 2.4 36.3 0
10:45 1023 30.21 852 25.16 21.8 71.2 25 1.2 34.1 0
10:46 1023 30.21 852 25.16 21.7 71.1 27 1.9 35.4 0
10:47 1023 30.21 852 25.16 21.7 71 26 1.3 34.3 0
10:48 1023 30.21 852 25.16 21.7 71 26 1.3 34.4 0
10:49 1023 30.21 852 25.16 21.7 71.1 28 2.7 36.9 0
10:50 1023 30.21 852 25.16 21.8 71.3 28 2.7 36.9 0
10:51 1023 30.21 852 25.16 21.8 71.3 25 1.1 34 0
10:52 1023 30.21 852 25.16 21.8 71.3 24 0.3 32.5 0
10:53 1023 30.21 852 25.16 21.8 71.3 26 1.9 35.5 0
10:54 1023 30.21 852 25.16 22 71.5 28 2.9 37.2 0
10:55 1023 30.21 852 25.16 22.1 71.8 26 2.1 35.9 0
10:56 1023 30.21 852 25.16 22.2 72 23 0.4 32.8 0
10:57 1023 30.21 852 25.16 22.2 71.9 26 2.2 36 0
10:58 1023 30.21 852 25.16 22.2 71.9 30 4 39.2 0
10:59 1023 30.21 852 25.16 22.1 71.8 28 2.7 36.8 0
11:00 1023 30.21 852 25.16 22 71.6 24 0.6 33.1 0
11:01 1023 30.21 852 25.16 22 71.5 24 0.7 33.3 0
11:02 1023 30.21 852 25.16 22 71.6 23 0.4 32.7 0
11:03 1023 30.21 852 25.16 22.1 71.9 25 1.4 34.5 0
11:04 1023 30.21 852 25.16 22.3 72.2 27 2.5 36.5 0
11:05 1023 30.21 852 25.16 22.5 72.4 26 2.1 35.8 0
11:06 1023 30.21 852 25.16 22.6 72.6 24 1.1 34 0
11:07 1023 30.21 852 25.16 22.5 72.5 28 3.2 37.8 0
11:08 1023 30.21 852 25.16 22.5 72.6 23 0.4 32.8 0
11:09 1023 30.21 852 25.16 22.6 72.7 27 3 37.4 0
11:10 1023 30.21 852 25.16 22.6 72.8 23 0.9 33.6 0
11:11 1023 30.21 852 25.16 22.6 72.6 26 2.3 36.1 0
11:12 1023 30.21 852 25.16 22.4 72.4 29 3.9 39.1 0
11:13 1023 30.21 852 25.16 22.4 72.4 29 3.5 38.4 0
11:14 1023 30.21 852 25.16 22.5 72.5 27 2.5 36.6 0
11:15 1023 30.21 852 25.16 22.6 72.6 27 2.7 36.8 0
11:16 1023 30.21 852 25.16 22.6 72.6 24 1.4 34.5 0
11:17 1023 30.21 852 25.16 22.5 72.6 27 3 37.5 0
11:18 1023 30.21 852 25.16 22.5 72.5 29 3.6 38.4 0
11:19 1023 30.21 852 25.16 22.6 72.7 29 3.9 39 0
11:20 1023 30.21 852 25.16 22.8 73 29 3.9 39.1 0
11:21 1023 30.21 852 25.16 22.9 73.3 30 4.4 40 0
11:22 1023 30.21 852 25.16 23 73.4 26 2.6 36.7 0
11:23 1023 30.21 852 25.16 22.9 73.3 27 3.2 37.7 0
11:24 1023 30.21 852 25.16 22.8 73 25 2.1 35.8 0
11:25 1023 30.21 852 25.16 22.7 72.8 32 5.4 41.8 0
11:26 1023 30.21 852 25.16 22.6 72.7 26 2.6 36.6 0
11:27 1023 30.21 852 25.16 22.6 72.7 31 4.8 40.6 0
11:28 1023 30.21 852 25.16 22.7 72.9 26 2.6 36.7 0
11:29 1023 30.21 852 25.16 22.9 73.2 25 1.9 35.5 0
11:30 1023 30.21 852 25.16 22.9 73.2 26 2.4 36.3 0
11:31 1023 30.21 852 25.16 22.8 73.1 27 3.3 37.9 0
11:32 1023 30.21 852 25.16 22.8 73 24 1.2 34.2 0
11:33 1023 30.21 852 25.16 22.8 73.1 26 2.7 36.9 0
11:34 1023 30.21 852 25.16 22.9 73.2 25 2 35.6 0
11:35 1023 30.21 852 25.16 22.8 73.1 27 3.2 37.8 0
11:36 1023 30.21 852 25.16 22.9 73.1 29 4.3 39.8 0
11:37 1023 30.21 852 25.16 22.9 73.3 28 3.7 38.7 0
11:38 1023 30.21 852 25.16 22.9 73.1 30 4.6 40.2 0
11:39 1023 30.21 852 25.16 22.8 73 29 4.3 39.7 0
11:40 1023 30.21 852 25.16 22.7 72.9 31 4.7 40.5 0
11:41 1023 30.21 852 25.16 22.7 72.8 31 4.8 40.6 0
11:42 1023 30.21 852 25.16 22.6 72.8 28 3.5 38.3 0
11:43 1023 30.21 852 25.16 22.7 72.8 26 2.2 36 0
11:44 1023 30.21 852 25.16 22.6 72.7 28 3.4 38.1 0
11:45 1023 30.21 852 25.16 22.6 72.6 28 3.4 38.1 0
11:46 1023 30.21 852 25.16 22.6 72.6 29 3.7 38.6 0
11:47 1023 30.21 852 25.16 22.8 73.1 25 2.1 35.7 0
11:48 1023 30.21 852 25.16 23 73.3 26 2.7 36.9 0
11:49 1023 30.21 852 25.16 22.9 73.3 25 1.8 35.3 0
11:50 1023 30.21 852 25.16 23 73.3 28 3.6 38.4 0
11:51 1023 30.21 852 25.16 23.1 73.5 27 3.5 38.3 0
11:52 1023 30.21 852 25.16 23.3 73.9 31 5.5 42 0
11:53 1023 30.21 852 25.16 23.4 74.1 29 4.6 40.4 0
11:54 1022 30.18 852 25.16 23.2 73.8 28 4.1 39.3 0
11:55 1023 30.21 852 25.16 23.1 73.6 30 4.7 40.5 0
11:56 1023 30.21 852 25.16 23 73.4 28 3.8 38.8 0
11:57 1023 30.21 852 25.16 23 73.4 29 4.2 39.5 0
11:58 1023 30.21 852 25.16 23 73.4 27 3.3 38 0
11:59 1023 30.21 852 25.16 23 73.3 29 4.3 39.7 0
12:00 1022 30.18 852 25.16 23 73.3 27 3.3 38 0
12:01 1022 30.18 852 25.16 22.9 73.3 29 4.4 39.8 0
12:02 1023 30.21 852 25.16 22.8 73.1 31 5 41 0
12:03 1023 30.21 852 25.16 22.8 73 32 5.3 41.5 0
12:04 1022 30.18 852 25.16 22.9 73.3 26 2.4 36.4 0
12:05 1022 30.18 852 25.16 23.2 73.7 25 2.2 35.9 0
12:06 1023 30.21 852 25.16 23.3 74 29 4.5 40.1 0
12:07 1022 30.18 852 25.16 23.2 73.8 28 4.1 39.4 0
12:08 1022 30.18 852 25.16 23.1 73.5 27 3.2 37.8 0
12:09 1022 30.18 852 25.16 22.9 73.2 27 3.1 37.6 0
12:10 1022 30.18 852 25.16 22.8 73 29 3.9 39.1 0
12:11 1022 30.18 852 25.16 22.6 72.7 29 3.8 38.8 0
12:12 1022 30.18 852 25.16 22.7 72.8 27 3.1 37.6 0
12:13 1022 30.18 852 25.16 22.7 72.9 29 4.1 39.4 0
12:14 1022 30.18 852 25.16 22.7 72.8 29 4 39.2 0
12:15 1022 30.18 852 25.16 22.7 72.8 31 4.8 40.6 0
12:16 1022 30.18 852 25.16 22.6 72.8 29 3.7 38.7 0
12:17 1022 30.18 852 25.16 22.7 72.9 28 3.7 38.7 0
12:18 1022 30.18 852 25.16 22.8 73.1 28 3.8 38.9 0
12:19 1022 30.18 852 25.16 22.9 73.1 29 4 39.1 0
12:20 1022 30.18 852 25.16 22.9 73.1 28 3.5 38.4 0
12:21 1022 30.18 852 25.16 22.8 73 26 2.4 36.3 0
12:22 1022 30.18 852 25.16 22.7 72.8 29 3.9 39 0
12:23 1022 30.18 852 25.16 22.7 72.8 29 4.1 39.4 0
12:24 1022 30.18 852 25.16 22.6 72.6 32 5.1 41.2 0
12:25 1022 30.18 851 25.13 22.5 72.4 28 3.1 37.6 0
12:26 1022 30.18 851 25.13 22.5 72.5 30 4.2 39.5 0
12:27 1022 30.18 851 25.13 22.7 72.8 26 2.3 36.1 0
12:28 1022 30.18 851 25.13 22.9 73.3 24 1.7 35 0
12:29 1022 30.18 851 25.13 23.2 73.7 29 4.3 39.8 0
12:30 1022 30.18 851 25.13 23.3 73.9 23 1.4 34.6 0
12:31 1022 30.18 851 25.13 23.2 73.8 28 3.9 39 0
12:32 1022 30.18 851 25.13 23.2 73.7 24 1.8 35.3 0
12:33 1022 30.18 851 25.13 23 73.4 25 2.1 35.7 0
12:34 1022 30.18 851 25.13 22.9 73.1 24 1.3 34.4 0
12:35 1022 30.18 851 25.13 22.9 73.2 24 1.7 35 0
12:36 1022 30.18 851 25.13 23 73.4 26 2.4 36.3 0
12:37 1022 30.18 851 25.13 23.1 73.6 27 3.3 37.9 0
12:38 1022 30.18 851 25.13 23.2 73.8 28 3.9 39 0
12:39 1022 30.18 851 25.13 23.4 74.1 21 0.3 32.6 0
12:40 1022 30.18 851 25.13 23.4 74.1 24 1.9 35.3 0
12:41 1022 30.18 851 25.13 23.4 74.2 23 1.3 34.4 0
12:42 1022 30.18 851 25.13 23.6 74.5 22 0.6 33.1 0
12:43 1022 30.18 851 25.13 23.8 74.9 22 1 33.9 0
12:44 1022 30.18 851 25.13 23.9 75 23 1.9 35.4 0
12:45 1022 30.18 851 25.13 23.9 75 28 4.3 39.7 0
12:46 1022 30.18 851 25.13 23.9 75 23 1.7 35 0
12:47 1022 30.18 851 25.13 23.9 74.9 23 1.6 34.9 0
12:48 1022 30.18 851 25.13 23.9 75 27 3.8 38.8 0
12:49 1022 30.18 851 25.13 24 75.2 26 3.5 38.4 0
12:50 1022 30.18 851 25.13 24 75.2 24 2.2 35.9 0
12:51 1022 30.18 851 25.13 24 75.2 24 2.4 36.3 0
12:52 1022 30.18 851 25.13 24 75.2 24 2.7 36.9 0
12:53 1022 30.18 851 25.13 23.8 74.9 25 3 37.3 0
12:54 1022 30.18 851 25.13 23.8 74.9 26 3.5 38.2 0
12:55 1022 30.18 851 25.13 24 75.2 23 1.9 35.4 0
12:56 1022 30.18 851 25.13 24 75.3 27 4.1 39.3 0
12:57 1022 30.18 851 25.13 24 75.1 25 2.8 37.1 0
12:58 1022 30.18 851 25.13 23.8 74.8 23 1.8 35.2 0
12:59 1022 30.18 851 25.13 23.7 74.7 27 3.9 39 0
13:00 1022 30.18 851 25.13 23.9 75 28 4.7 40.5 0
13:01 1022 30.18 851 25.13 23.9 75.1 28 4.6 40.3 0
13:02 1022 30.18 851 25.13 23.9 75 27 4 39.2 0
13:03 1022 30.18 851 25.13 23.8 74.9 28 4.5 40.1 0
13:04 1022 30.18 851 25.13 23.8 74.8 29 5.1 41.3 0
13:05 1022 30.18 851 25.13 23.9 74.9 27 4 39.2 0
13:06 1022 30.18 851 25.13 23.9 75.1 26 3.4 38.1 0
13:07 1022 30.18 851 25.13 23.8 74.9 26 3.4 38.2 0
13:08 1022 30.18 851 25.13 23.6 74.4 25 2.5 36.4 0
13:09 1022 30.18 851 25.13 23.4 74.1 25 2.5 36.6 0
13:10 1022 30.18 851 25.13 23.3 74 23 1.3 34.3 0
13:11 1022 30.18 851 25.13 23.3 73.9 24 1.9 35.4 0
13:12 1022 30.18 851 25.13 23.3 73.9 25 2.6 36.7 0
13:13 1022 30.18 851 25.13 23.2 73.8 27 3.6 38.4 0
13:14 1022 30.18 851 25.13 23.3 73.9 27 3.5 38.3 0
13:15 1022 30.18 851 25.13 23.4 74.2 25 2.7 36.9 0
13:16 1022 30.18 851 25.13 23.5 74.2 26 3.3 37.9 0
13:17 1022 30.18 851 25.13 23.6 74.5 25 2.6 36.8 0
13:18 1022 30.18 851 25.13 23.7 74.7 25 2.9 37.2 0
13:19 1022 30.18 851 25.13 23.9 75.1 25 2.9 37.2 0
13:20 1022 30.18 851 25.13 24.4 75.8 25 3.5 38.3 0
13:21 1022 30.18 851 25.13 24.6 76.2 22 1.7 35 0
13:22 1022 30.18 851 25.13 24.4 75.9 21 0.9 33.6 0
13:23 1022 30.18 851 25.13 24.3 75.7 21 1.1 33.9 0
13:24 1022 30.18 851 25.13 24.2 75.5 22 1.4 34.6 0
13:25 1022 30.18 851 25.13 24.1 75.4 22 1.4 34.4 0
13:26 1022 30.18 851 25.13 24 75.3 21 0.6 33.2 0
13:27 1022 30.18 851 25.13 24 75.2 21 0.3 32.5 0
13:28 1022 30.18 851 25.13 24 75.1 22 1 33.8 0
13:29 1022 30.18 851 25.13 23.9 74.9 24 2.5 36.5 0
13:30 1022 30.18 851 25.13 23.9 75 25 2.8 37 0
13:31 1022 30.18 851 25.13 23.8 74.9 25 2.8 37 0
13:32 1022 30.18 851 25.13 23.9 74.9 23 1.7 35 0
13:33 1022 30.18 851 25.13 23.9 75 24 2.5 36.6 0
13:34 1022 30.18 851 25.13 23.9 75 24 2.5 36.4 0
13:35 1022 30.18 851 25.13 23.9 74.9 23 2 35.5 0
13:36 1022 30.18 851 25.13 23.9 74.9 24 2.2 36 0
13:37 1022 30.18 851 25.13 24 75.1 26 3.3 37.9 0
13:38 1022 30.18 851 25.13 24.1 75.3 23 2.2 35.9 0
13:39 1022 30.18 851 25.13 24.2 75.6 22 1.3 34.4 0
13:40 1022 30.18 851 25.13 24.3 75.8 24 2.4 36.4 0
13:41 1022 30.18 851 25.13 24.5 76 22 1.7 35 0
13:42 1022 30.18 851 25.13 24.7 76.4 23 2.1 35.8 0
13:43 1022 30.18 851 25.13 24.9 76.7 26 4.1 39.3 0
13:44 1022 30.18 851 25.13 25.1 77.1 26 4.2 39.6 0
13:45 1022 30.18 851 25.13 25.1 77.2 23 3.1 37.5 0
13:46 1021 30.15 851 25.13 25.1 77.2 22 2.1 35.8 0
13:47 1021 30.15 851 25.13 25 77 23 2.8 37.1 0
13:48 1021 30.15 851 25.13 24.9 76.9 27 5 41 0
13:49 1021 30.15 851 25.13 24.8 76.6 21 1.4 34.4 0
13:50 1021 30.15 851 25.13 24.7 76.4 24 2.8 37.1 0
13:51 1021 30.15 851 25.13 24.5 76.2 24 2.7 36.8 0
13:52 1021 30.15 851 25.13 24.5 76.1 25 3.6 38.6 0
13:53 1021 30.15 851 25.13 24.5 76.1 26 3.9 39 0
13:54 1021 30.15 851 25.13 24.5 76 23 2.3 36.1 0
13:55 1021 30.15 851 25.13 24.4 76 24 2.8 37 0
13:56 1021 30.15 851 25.13 24.5 76.1 23 2.1 35.7 0
13:57 1021 30.15 851 25.13 24.5 76.1 22 1.8 35.2 0
13:58 1021 30.15 851 25.13 24.5 76 24 2.8 37.1 0
13:59 1021 30.15 851 25.13 24.3 75.8 28 5 41 0
14:00 1021 30.15 851 25.13 24.2 75.5 22 1.1 33.9 0
14:01 1021 30.15 851 25.13 24.2 75.6 22 1.2 34.2 0
14:02 1021 30.15 851 25.13 24.2 75.5 23 2 35.5 0
14:03 1021 30.15 851 25.13 24.2 75.6 21 0.9 33.6 0
14:04 1021 30.15 851 25.13 24.2 75.6 25 3.2 37.8 0
14:05 1021 30.15 851 25.13 24.3 75.7 28 5 41 0
14:06 1021 30.15 851 25.13 24.5 76 23 2 35.6 0
14:07 1021 30.15 851 25.13 24.7 76.5 23 2.2 36 0
14:08 1021 30.15 851 25.13 25 77 20 0.9 33.6 0
14:09 1021 30.15 851 25.13 25.2 77.4 21 1.7 35.1 0
14:10 1021 30.15 851 25.13 25.2 77.4 21 1.4 34.5 0
14:11 1021 30.15 850 25.1 25.2 77.4 20 1 33.8 0
14:12 1021 30.15 850 25.1 25.1 77.2 22 2.5 36.4 0
14:13 1021 30.15 850 25.1 25.1 77.1 23 2.5 36.5 0
14:14 1021 30.15 850 25.1 24.9 76.9 20 0.3 32.6 0
14:15 1021 30.15 850 25.1 24.8 76.7 24 3.1 37.5 0
14:16 1021 30.15 850 25.1 24.9 76.7 23 2.7 36.8 0
14:17 1021 30.15 850 25.1 24.9 76.8 26 4.5 40.1 0
14:18 1021 30.15 850 25.1 25 77 23 2.4 36.4 0
14:19 1021 30.15 850 25.1 24.9 76.8 21 1.4 34.5 0
14:20 1021 30.15 850 25.1 24.9 76.7 23 2.4 36.2 0
14:21 1021 30.15 850 25.1 25 76.9 23 2.6 36.6 0
14:22 1021 30.15 850 25.1 25.2 77.4 22 2.5 36.5 0
14:23 1021 30.15 850 25.1 25.4 77.7 24 3.8 38.8 0
14:24 1021 30.15 850 25.1 25.5 78 21 1.8 35.2 0
14:25 1021 30.15 850 25.1 25.6 78 20 1.2 34.2 0
14:26 1021 30.15 850 25.1 25.6 78.1 21 2 35.6 0
14:27 1021 30.15 850 25.1 25.5 77.8 20 1 33.8 0
14:28 1021 30.15 850 25.1 25.4 77.8 19 0.2 32.3 0
14:29 1021 30.15 850 25.1 25.3 77.6 20 0.7 33.3 0
14:30 1021 30.15 850 25.1 25.3 77.5 19 -0 32 0
14:31 1021 30.15 850 25.1 25.2 77.4 19 0.4 32.8 0
14:32 1021 30.15 850 25.1 25.3 77.5 23 2.7 36.9 0
14:33 1021 30.15 850 25.1 25.4 77.6 23 3.2 37.7 0
14:34 1021 30.15 850 25.1 25.4 77.7 21 1.5 34.7 0
14:35 1021 30.15 850 25.1 25.5 77.8 20 1 33.7 0
14:36 1021 30.15 850 25.1 25.5 77.9 20 1.4 34.5 0
14:37 1021 30.15 850 25.1 25.4 77.8 23 3 37.4 0
14:38 1021 30.15 850 25.1 25.3 77.6 22 2.2 36 0
14:39 1021 30.15 850 25.1 25.2 77.4 22 2.1 35.8 0
14:40 1021 30.15 850 25.1 25.1 77.2 24 3.2 37.7 0
14:41 1021 30.15 850 25.1 25.2 77.3 25 4.3 39.7 0
14:42 1021 30.15 850 25.1 25.3 77.6 23 3 37.4 0
14:43 1021 30.15 850 25.1 25.4 77.7 21 2 35.6 0
14:44 1021 30.15 850 25.1 25.4 77.8 23 3.1 37.6 0
14:45 1021 30.15 850 25.1 25.3 77.6 25 4 39.2 0
14:46 1021 30.15 850 25.1 25.2 77.3 24 3.6 38.4 0
14:47 1021 30.15 850 25.1 25.1 77.1 26 4.4 40 0
14:48 1021 30.15 850 25.1 25 77 26 4.4 39.9 0
14:49 1021 30.15 850 25.1 25 76.9 25 4 39.1 0
14:50 1021 30.15 850 25.1 25 77 26 4.2 39.5 0
14:51 1021 30.15 850 25.1 25 76.9 25 3.7 38.6 0
14:52 1021 30.15 850 25.1 25 76.9 25 3.7 38.7 0
14:53 1021 30.15 850 25.1 25 76.9 24 3.5 38.4 0
14:54 1021 30.15 850 25.1 25 77 21 1.3 34.4 0
14:55 1021 30.15 850 25.1 25.1 77.1 25 3.7 38.7 0
14:56 1021 30.15 850 25.1 25.1 77.2 26 4.5 40.2 0
14:57 1021 30.15 850 25.1 25.1 77.1 26 4.5 40.2 0
14:58 1021 30.15 850 25.1 25.1 77.1 24 3.4 38 0
14:59 1021 30.15 850 25.1 25.1 77.1 30 6.4 43.4 0
15:00 1021 30.15 850 25.1 25 77 22 2.2 35.9 0
15:01 1021 30.15 850 25.1 25 76.9 26 4.2 39.6 0
15:02 1021 30.15 850 25.1 25 77 24 3.3 38 0
15:03 1021 30.15 850 25.1 25 77 24 3.5 38.3 0
15:04 1021 30.15 850 25.1 25 77 24 3.3 37.9 0
15:05 1021 30.15 850 25.1 25 77 23 2.5 36.6 0
15:06 1021 30.15 850 25.1 25 77 26 4.5 40.2 0
15:07 1021 30.15 850 25.1 25 77 22 2.3 36.2 0
15:08 1021 30.15 850 25.1 25.1 77.1 21 1.1 34 0
15:09 1021 30.15 850 25.1 25.1 77.1 22 2.1 35.7 0
15:10 1021 30.15 850 25.1 25.1 77.2 23 2.9 37.3 0
15:11 1021 30.15 850 25.1 25.1 77.1 21 1.5 34.6 0
15:12 1021 30.15 850 25.1 25 77 23 2.8 37 0
15:13 1021 30.15 850 25.1 24.9 76.9 23 2.6 36.7 0
15:14 1021 30.15 850 25.1 24.7 76.5 25 3.6 38.4 0
15:15 1021 30.15 850 25.1 24.6 76.3 25 3.3 37.9 0
15:16 1021 30.15 850 25.1 24.5 76.1 27 4.6 40.3 0
15:17 1021 30.15 850 25.1 24.4 76 23 2.4 36.4 0
15:18 1021 30.15 850 25.1 24.3 75.8 28 4.8 40.7 0
15:19 1021 30.15 850 25.1 24.2 75.6 27 4.3 39.7 0
15:20 1021 30.15 850 25.1 24.1 75.4 26 3.5 38.4 0
15:21 1021 30.15 850 25.1 24.1 75.4 30 5.8 42.4 0
15:22 1021 30.15 850 25.1 24 75.3 29 5 41 0
15:23 1021 30.15 850 25.1 24 75.2 26 3.5 38.2 0
15:24 1021 30.15 850 25.1 23.9 75 29 4.9 40.8 0
15:25 1021 30.15 850 25.1 23.8 74.9 28 4.3 39.7 0
15:26 1021 30.15 850 25.1 23.8 74.8 28 4.4 39.9 0
15:27 1021 30.15 850 25.1 23.7 74.6 29 4.9 40.7 0
15:28 1021 30.15 850 25.1 23.7 74.7 26 3.3 37.9 0
15:29 1021 30.15 850 25.1 23.7 74.7 26 3.4 38.2 0
15:30 1021 30.15 850 25.1 23.8 74.8 27 3.7 38.7 0
15:31 1021 30.15 850 25.1 23.7 74.7 28 4.3 39.8 0
15:32 1021 30.15 850 25.1 23.6 74.5 29 4.8 40.6 0
15:33 1021 30.15 850 25.1 23.5 74.3 29 4.6 40.4 0
15:34 1021 30.15 850 25.1 23.3 74 30 5.2 41.3 0
15:35 1021 30.15 850 25.1 23.2 73.8 31 5.3 41.5 0
15:36 1021 30.15 850 25.1 23.2 73.8 30 4.9 40.8 0
15:37 1021 30.15 850 25.1 23.2 73.8 31 5.6 42 0
15:38 1021 30.15 850 25.1 23.2 73.7 32 5.8 42.4 0
15:39 1021 30.15 850 25.1 23.1 73.7 31 5.4 41.8 0
15:40 1021 30.15 850 25.1 23.1 73.6 33 6.1 42.9 0
15:41 1021 30.15 850 25.1 23 73.5 32 5.7 42.3 0
15:42 1021 30.15 850 25.1 23 73.4 31 5.2 41.4 0
15:43 1021 30.15 850 25.1 23 73.3 31 5.3 41.6 0
15:44 1021 30.15 850 25.1 23 73.3 31 5.3 41.6 0
15:45 1021 30.15 850 25.1 23 73.5 31 5 41.1 0
15:46 1021 30.15 850 25.1 23.1 73.5 32 5.5 42 0
15:47 1021 30.15 850 25.1 23.1 73.6 36 7.3 45.2 0
15:48 1021 30.15 850 25.1 23.1 73.5 34 6.7 44 0
15:49 1021 30.15 850 25.1 23 73.5 28 3.9 39.1 0
15:50 1021 30.15 850 25.1 23.1 73.6 29 4.3 39.7 0
15:51 1021 30.15 850 25.1 23.2 73.8 28 4 39.1 0
15:52 1021 30.15 850 25.1 23.3 73.9 33 6.5 43.7 0
15:53 1021 30.15 850 25.1 23.3 74 31 5.5 41.9 0
15:54 1021 30.15 850 25.1 23.3 74 32 6.1 43 0
15:55 1021 30.15 850 25.1 23.3 73.9 29 4.5 40.1 0
15:56 1021 30.15 850 25.1 23.2 73.8 31 5.5 42 0
15:57 1021 30.15 850 25.1 23.3 73.9 35 7 44.5 0
15:58 1021 30.15 850 25.1 23.2 73.8 32 5.6 42.2 0
15:59 1021 30.15 850 25.1 23.2 73.7 32 5.6 42.1 0
16:00 1021 30.15 850 25.1 23.1 73.6 29 4.2 39.6 0
16:01 1021 30.15 850 25.1 23.2 73.8 31 5.4 41.7 0
16:02 1021 30.15 850 25.1 23.1 73.7 32 5.6 42.1 0
16:03 1021 30.15 850 25.1 23.1 73.6 32 5.5 41.9 0
16:04 1021 30.15 850 25.1 23 73.5 33 6.1 43 0
16:05 1021 30.15 850 25.1 22.9 73.3 33 5.9 42.6 0
16:06 1021 30.15 850 25.1 22.9 73.1 33 6.2 43.1 0
16:07 1021 30.15 850 25.1 22.8 73 34 6.3 43.4 0
16:08 1021 30.15 850 25.1 22.7 72.9 33 6 42.8 0
16:09 1021 30.15 850 25.1 22.7 72.8 32 5.4 41.6 0
16:10 1021 30.15 850 25.1 22.7 72.9 34 6.3 43.4 0
16:11 1021 30.15 850 25.1 22.7 72.9 36 7.1 44.7 0
16:12 1021 30.15 850 25.1 22.6 72.7 37 7.3 45.1 0
16:13 1021 30.15 850 25.1 22.6 72.7 34 6.3 43.4 0
16:14 1021 30.15 850 25.1 22.5 72.6 36 6.8 44.3 0
16:15 1021 30.15 850 25.1 22.6 72.6 33 5.7 42.3 0
16:16 1021 30.15 850 25.1 22.7 72.8 36 7.1 44.7 0
16:17 1021 30.15 850 25.1 22.7 72.8 37 7.3 45.1 0
16:18 1021 30.15 850 25.1 22.7 72.8 36 7 44.6 0
16:19 1021 30.15 850 25.1 22.7 72.9 32 5.6 42 0
16:20 1021 30.15 850 25.1 22.8 73 34 6.2 43.1 0
16:21 1021 30.15 850 25.1 22.8 73 36 7.2 45 0
16:22 1021 30.15 850 25.1 22.9 73.2 36 7.3 45.1 0
16:23 1021 30.15 850 25.1 23 73.3 35 6.9 44.5 0
16:24 1021 30.15 850 25.1 23 73.4 31 5.1 41.2 0
16:25 1021 30.15 850 25.1 23.1 73.5 31 5.2 41.3 0
16:26 1021 30.15 850 25.1 23.1 73.6 36 7.4 45.3 0
16:27 1021 30.15 850 25.1 23.1 73.6 33 6.3 43.3 0
16:28 1021 30.15 850 25.1 23.1 73.6 30 5 40.9 0
16:29 1021 30.15 850 25.1 23.1 73.6 34 6.7 44.1 0
16:30 1021 30.15 850 25.1 23.1 73.6 35 7 44.6 0
16:31 1021 30.15 850 25.1 23.1 73.6 32 5.7 42.3 0
16:32 1021 30.15 850 25.1 23.2 73.7 35 7.1 44.8 0
16:33 1021 30.15 850 25.1 23.1 73.5 31 5.2 41.3 0
16:34 1021 30.15 850 25.1 23.1 73.6 36 7.4 45.3 0
16:35 1021 30.15 850 25.1 23 73.5 34 6.6 43.8 0
16:36 1021 30.15 850 25.1 23 73.4 29 4.3 39.7 0
16:37 1021 30.15 850 25.1 23.1 73.5 31 5.4 41.7 0
16:38 1021 30.15 850 25.1 23.1 73.7 30 4.9 40.8 0
16:39 1021 30.15 850 25.1 23.2 73.8 31 5.4 41.6 0
16:40 1021 30.15 850 25.1 23.4 74.1 36 7.8 46.1 0
16:41 1021 30.15 850 25.1 23.5 74.4 33 6.6 44 0
16:42 1021 30.15 850 25.1 23.7 74.7 29 4.9 40.8 0
16:43 1021 30.15 850 25.1 23.8 74.9 30 5.4 41.7 0
16:44 1021 30.15 850 25.1 23.9 75 31 6.1 42.9 0
16:45 1021 30.15 850 25.1 24 75.2 38 9 48.2 0
16:46 1021 30.15 850 25.1 24.1 75.3 41 10.3 50.6 0
16:47 1021 30.15 850 25.1 24.1 75.4 38 9.1 48.3 0
16:48 1021 30.15 850 25.1 24.1 75.3 41 10.2 50.4 0
16:49 1021 30.15 850 25.1 24 75.3 41 10.2 50.3 0
16:50 1021 30.15 850 25.1 24 75.2 40 9.8 49.6 0
16:51 1021 30.15 850 25.1 23.9 75.1 33 7 44.7 0
16:52 1021 30.15 850 25.1 23.8 74.9 36 8.2 46.8 0
16:53 1021 30.15 850 25.1 23.7 74.7 40 9.6 49.2 0
16:54 1021 30.15 850 25.1 23.6 74.5 40 9.5 49.1 0
16:55 1021 30.15 850 25.1 23.5 74.2 43 10.4 50.8 0
16:56 1021 30.15 850 25.1 23.3 73.9 45 10.8 51.5 0
16:57 1021 30.15 850 25.1 23.1 73.6 44 10.5 50.8 0
16:58 1021 30.15 850 25.1 22.9 73.2 46 10.8 51.5 0
16:59 1021 30.15 850 25.1 22.7 72.9 43 9.7 49.4 0
17:00 1021 30.15 850 25.1 22.7 72.8 44 9.9 49.9 0
17:01 1021 30.15 850 25.1 22.6 72.7 43 9.4 49 0
17:02 1021 30.15 850 25.1 22.6 72.7 39 8.2 46.8 0
17:03 1021 30.15 850 25.1 22.7 72.8 44 9.8 49.7 0
17:04 1021 30.15 850 25.1 22.8 73 39 8.4 47 0
17:05 1021 30.15 850 25.1 22.9 73.1 44 10.1 50.2 0
17:06 1021 30.15 850 25.1 23 73.4 37 7.7 45.9 0
17:07 1021 30.15 850 25.1 23.1 73.7 47 11.5 52.7 0
17:08 1021 30.15 850 25.1 23.2 73.8 38 8.2 46.7 0
17:09 1021 30.15 850 25.1 23.3 73.9 34 6.7 44 0
17:10 1021 30.15 850 25.1 23.3 74 33 6.5 43.7 0
17:11 1021 30.15 850 25.1 23.4 74.1 37 8.3 46.9 0
17:12 1021 30.15 850 25.1 23.6 74.4 29 4.7 40.4 0
17:13 1021 30.15 850 25.1 23.7 74.6 36 8 46.4 0
17:14 1021 30.15 850 25.1 23.8 74.8 37 8.5 47.3 0
17:15 1021 30.15 850 25.1 23.8 74.9 43 10.5 51 0
17:16 1021 30.15 850 25.1 23.7 74.7 49 12.5 54.5 0
17:17 1021 30.15 850 25.1 23.7 74.6 46 11.6 52.8 0
17:18 1021 30.15 850 25.1 23.6 74.4 48 12 53.6 0
17:19 1021 30.15 850 25.1 23.5 74.2 53 13.6 56.5 0
17:20 1021 30.15 850 25.1 23.3 74 52 13 55.4 0
17:21 1021 30.15 850 25.1 23.2 73.7 51 12.8 55 0
17:22 1021 30.15 850 25.1 23 73.5 46 11.1 51.9 0
17:23 1021 30.15 850 25.1 22.9 73.3 47 11.3 52.3 0
17:24 1020 30.12 850 25.1 22.9 73.2 47 11.1 52.1 0
17:25 1020 30.12 850 25.1 22.8 73.1 44 10.3 50.5 0
17:26 1020 30.12 850 25.1 22.8 73 49 11.6 52.8 0
17:27 1020 30.12 850 25.1 22.7 72.8 50 11.9 53.4 0
17:28 1020 30.12 850 25.1 22.6 72.7 47 11 51.7 0
17:29 1020 30.12 850 25.1 22.6 72.7 50 11.7 53.1 0
17:30 1020 30.12 850 25.1 22.6 72.7 45 10.1 50.1 0
17:31 1020 30.12 850 25.1 22.7 72.8 45 10.2 50.4 0
17:32 1020 30.12 850 25.1 22.7 72.8 45 10.2 50.4 0
17:33 1020 30.12 850 25.1 22.7 72.8 44 9.9 49.9 0
17:34 1021 30.15 850 25.1 22.7 72.8 42 9.3 48.8 0
17:35 1021 30.15 850 25.1 22.6 72.7 51 12.1 53.8 0
17:36 1021 30.15 850 25.1 22.5 72.5 52 12.4 54.4 0
17:37 1021 30.15 850 25.1 22.3 72.1 54 12.7 54.9 0
17:38 1021 30.15 850 25.1 22.2 71.9 51 11.7 53 0
17:39 1021 30.15 850 25.1 22.1 71.8 48 10.8 51.4 0
17:40 1021 30.15 850 25.1 22.1 71.7 49 11 51.9 0
17:41 1021 30.15 850 25.1 22 71.7 47 10.3 50.6 0
17:42 1021 30.15 850 25.1 22 71.7 47 10.5 50.8 0
17:43 1021 30.15 850 25.1 22 71.7 46 10 50 0
17:44 1021 30.15 850 25.1 22.1 71.7 47 10.4 50.8 0
17:45 1021 30.15 850 25.1 22 71.7 48 10.8 51.4 0
17:46 1021 30.15 850 25.1 22 71.7 49 11 51.8 0
17:47 1021 30.15 850 25.1 22 71.7 48 10.7 51.2 0
17:48 1021 30.15 850 25.1 22.1 71.8 44 9.3 48.7 0
17:49 1021 30.15 850 25.1 22.2 71.9 52 12 53.5 0
17:50 1021 30.15 850 25.1 22.3 72.1 49 11.2 52.1 0
17:51 1021 30.15 850 25.1 22.4 72.2 48 11.1 51.9 0
17:52 1021 30.15 850 25.1 22.4 72.4 47 10.6 51.1 0
17:53 1021 30.15 850 25.1 22.6 72.6 48 11.1 52 0
17:54 1021 30.15 850 25.1 22.6 72.7 43 9.6 49.3 0
17:55 1021 30.15 850 25.1 22.7 72.8 45 10.3 50.5 0
17:56 1021 30.15 850 25.1 22.7 72.8 45 10.4 50.8 0
17:57 1021 30.15 850 25.1 22.7 72.8 45 10.2 50.4 0
17:58 1021 30.15 850 25.1 22.7 72.9 41 8.9 48 0
17:59 1021 30.15 850 25.1 22.8 73.1 39 8.2 46.7 0
18:00 1021 30.15 850 25.1 23 73.3 39 8.3 47 0
18:01 1021 30.15 850 25.1 23 73.5 37 7.9 46.2 0
18:02 1021 30.15 850 25.1 23.1 73.5 38 8.3 47 0
18:03 1021 30.15 850 25.1 23.1 73.6 42 9.6 49.2 0
18:04 1021 30.15 850 25.1 23.1 73.6 43 10.1 50.2 0
18:05 1021 30.15 850 25.1 23.1 73.6 42 9.6 49.3 0
18:06 1021 30.15 850 25.1 23.1 73.6 45 10.8 51.4 0
18:07 1021 30.15 850 25.1 23.2 73.8 43 10.2 50.3 0
18:08 1021 30.15 850 25.1 23.3 73.9 36 7.7 45.9 0
18:09 1021 30.15 850 25.1 23.3 74 39 8.8 47.9 0
18:10 1021 30.15 850 25.1 23.5 74.3 36 7.9 46.2 0
18:11 1021 30.15 850 25.1 23.7 74.6 40 9.3 48.8 0
18:12 1021 30.15 850 25.1 23.7 74.7 37 8.3 46.9 0
18:13 1021 30.15 850 25.1 23.8 74.8 33 6.8 44.3 0
18:14 1021 30.15 850 25.1 23.9 75 39 9.1 48.4 0
18:15 1021 30.15 850 25.1 24 75.2 33 7.2 44.9 0
18:16 1021 30.15 850 25.1 24.1 75.4 30 5.5 41.9 0
18:17 1021 30.15 850 25.1 24.3 75.7 30 5.8 42.4 0
18:18 1021 30.15 850 25.1 24.5 76 30 6 42.8 0
18:19 1021 30.15 850 25.1 24.5 76.2 28 4.9 40.9 0
18:20 1020 30.12 850 25.1 24.6 76.2 31 6.7 44 0
18:21 1020 30.12 850 25.1 24.5 76.1 28 5.2 41.4 0
18:22 1020 30.12 850 25.1 24.4 76 27 4.2 39.6 0
18:23 1020 30.12 850 25.1 24.4 75.9 31 6.3 43.3 0
18:24 1020 30.12 850 25.1 24.3 75.8 32 6.8 44.3 0
18:25 1020 30.12 850 25.1 24.3 75.8 33 7.4 45.4 0
18:26 1020 30.12 850 25.1 24.3 75.7 29 5.3 41.6 0
18:27 1020 30.12 850 25.1 24.2 75.6 33 7.1 44.7 0
18:28 1020 30.12 850 25.1 24.1 75.4 33 7.2 45 0
18:29 1020 30.12 850 25.1 24 75.3 33 6.9 44.4 0
18:30 1020 30.12 850 25.1 24.1 75.4 34 7.4 45.3 0
18:31 1020 30.12 850 25.1 24.1 75.4 30 5.9 42.6 0
18:32 1020 30.12 850 25.1 24 75.2 32 6.7 44.1 0
18:33 1020 30.12 850 25.1 23.9 75 32 6.4 43.6 0
18:34 1020 30.12 850 25.1 23.8 74.8 35 7.6 45.7 0
18:35 1020 30.12 850 25.1 23.5 74.4 35 7.4 45.4 0
18:36 1020 30.12 850 25.1 23.4 74 36 7.8 46.1 0
18:37 1020 30.12 850 25.1 23.2 73.7 38 8.3 46.9 0
18:38 1020 30.12 850 25.1 23.1 73.5 36 7.5 45.5 0
18:39 1020 30.12 850 25.1 23 73.4 36 7.5 45.5 0
18:40 1020 30.12 849 25.07 23 73.3 31 5.2 41.3 0
18:41 1020 30.12 850 25.1 23 73.4 34 6.3 43.4 0
18:42 1020 30.12 850 25.1 23.1 73.5 31 5.1 41.2 0
18:43 1020 30.12 850 25.1 23.1 73.6 33 6.3 43.3 0
18:44 1020 30.12 850 25.1 23.1 73.5 31 5.1 41.2 0
18:45 1020 30.12 850 25.1 23.1 73.6 32 5.9 42.6 0
18:46 1020 30.12 850 25.1 23.1 73.6 34 6.5 43.7 0
18:47 1020 30.12 850 25.1 23.1 73.5 33 6 42.8 0
18:48 1020 30.12 850 25.1 23.1 73.5 38 8.3 46.9 0
18:49 1020 30.12 850 25.1 23 73.5 39 8.4 47.2 0
18:50 1020 30.12 850 25.1 22.9 73.2 41 9.1 48.4 0
18:51 1020 30.12 850 25.1 22.9 73.1 36 7.4 45.2 0
18:52 1020 30.12 850 25.1 22.9 73.2 32 5.7 42.3 0
18:53 1020 30.12 850 25.1 23 73.4 34 6.5 43.7 0
18:54 1020 30.12 850 25.1 23.1 73.5 37 7.6 45.7 0
18:55 1020 30.12 849 25.07 23 73.5 39 8.6 47.5 0
18:56 1020 30.12 850 25.1 22.9 73.3 37 7.8 46.1 0
18:57 1020 30.12 849 25.07 22.9 73.2 34 6.5 43.6 0
18:58 1020 30.12 849 25.07 23 73.4 32 5.8 42.4 0
18:59 1020 30.12 849 25.07 23 73.4 31 5.3 41.6 0
19:00 1020 30.12 849 25.07 23.1 73.5 31 5.3 41.5 0
19:01 1020 30.12 849 25.07 23 73.4 31 5 41.1 0
19:02 1020 30.12 849 25.07 23 73.4 32 5.6 42.1 0
19:03 1020 30.12 849 25.07 22.9 73.2 34 6.2 43.2 0
19:04 1020 30.12 849 25.07 22.8 73 33 6 42.9 0
19:05 1020 30.12 849 25.07 22.7 72.9 35 6.6 43.8 0
19:06 1020 30.12 849 25.07 22.7 72.9 37 7.4 45.2 0
19:07 1020 30.12 849 25.07 22.8 73 35 6.6 43.9 0
19:08 1020 30.12 849 25.07 22.9 73.3 37 7.7 45.9 0
19:09 1020 30.12 849 25.07 23.1 73.6 35 7 44.6 0
19:10 1020 30.12 849 25.07 23.3 73.9 32 6 42.8 0
19:11 1020 30.12 849 25.07 23.4 74.1 33 6.4 43.5 0
19:12 1020 30.12 849 25.07 23.5 74.3 34 7 44.5 0
19:13 1020 30.12 849 25.07 23.6 74.5 33 6.7 44.1 0
19:14 1020 30.12 849 25.07 23.7 74.6 32 6.2 43.2 0
19:15 1020 30.12 849 25.07 23.7 74.7 34 7.1 44.7 0
19:16 1020 30.12 849 25.07 23.8 74.8 33 6.8 44.2 0
19:17 1020 30.12 849 25.07 23.7 74.6 31 5.9 42.6 0
19:18 1020 30.12 849 25.07 23.7 74.6 33 6.6 43.9 0
19:19 1020 30.12 849 25.07 23.7 74.7 31 5.9 42.7 0
19:20 1020 30.12 849 25.07 23.8 74.8 33 6.6 43.8 0
19:21 1020 30.12 849 25.07 23.8 74.9 34 7.4 45.3 0
19:22 1020 30.12 849 25.07 23.8 74.9 30 5.6 42 0
19:23 1020 30.12 849 25.07 23.8 74.9 30 5.7 42.2 0
19:24 1020 30.12 849 25.07 23.8 74.9 29 5 41.1 0
19:25 1020 30.12 849 25.07 23.8 74.8 31 5.9 42.7 0
19:26 1020 30.12 849 25.07 23.8 74.8 30 5.4 41.6 0
19:27 1020 30.12 849 25.07 23.8 74.8 30 5.2 41.3 0
19:28 1020 30.12 849 25.07 23.8 74.8 28 4.3 39.8 0
19:29 1020 30.12 849 25.07 23.7 74.6 29 4.6 40.3 0
19:30 1020 30.12 849 25.07 23.7 74.6 30 5.1 41.2 0
19:31 1020 30.12 849 25.07 23.6 74.5 28 4.3 39.7 0
19:32 1020 30.12 849 25.07 23.6 74.4 30 5.2 41.3 0
19:33 1020 30.12 849 25.07 23.4 74.2 29 4.5 40 0
19:34 1020 30.12 849 25.07 23.4 74.1 28 4 39.1 0
19:35 1020 30.12 849 25.07 23.4 74.2 28 4.2 39.5 0
19:36 1020 30.12 849 25.07 23.5 74.2 28 4.3 39.8 0
19:37 1020 30.12 849 25.07 23.5 74.3 30 4.9 40.8 0
19:38 1020 30.12 849 25.07 23.5 74.3 28 4.2 39.5 0
19:39 1020 30.12 849 25.07 23.5 74.3 27 3.6 38.6 0
19:40 1020 30.12 849 25.07 23.6 74.4 28 4.3 39.8 0
19:41 1020 30.12 849 25.07 23.5 74.3 27 3.5 38.4 0
19:42 1020 30.12 849 25.07 23.5 74.4 28 4.3 39.7 0
19:43 1020 30.12 849 25.07 23.6 74.4 26 3.2 37.7 0
19:44 1020 30.12 849 25.07 23.6 74.5 28 4.4 39.9 0
19:45 1020 30.12 849 25.07 23.5 74.3 26 2.8 37.1 0
19:46 1020 30.12 849 25.07 23.5 74.3 26 3.1 37.7 0
19:47 1020 30.12 849 25.07 23.6 74.4 26 3.4 38.2 0
19:48 1020 30.12 849 25.07 23.5 74.4 27 3.5 38.2 0
19:49 1020 30.12 849 25.07 23.5 74.2 25 2.8 37 0
19:50 1020 30.12 849 25.07 23.5 74.3 26 2.9 37.2 0
19:51 1020 30.12 849 25.07 23.5 74.3 26 3.1 37.6 0
19:52 1020 30.12 849 25.07 23.5 74.2 26 3.1 37.6 0
19:53 1020 30.12 849 25.07 23.5 74.2 25 2.7 36.8 0
19:54 1020 30.12 849 25.07 23.5 74.2 26 3.1 37.6 0
19:55 1020 30.12 849 25.07 23.5 74.3 26 3.3 37.9 0
19:56 1020 30.12 849 25.07 23.4 74.2 26 3.2 37.8 0
19:57 1020 30.12 849 25.07 23.4 74 26 2.9 37.2 0
19:58 1020 30.12 849 25.07 23.4 74 25 2.6 36.7 0
19:59 1020 30.12 849 25.07 23.4 74 25 2.7 36.8 0
20:00 1020 30.12 849 25.07 23.4 74 26 2.8 37.1 0
20:01 1020 30.12 849 25.07 23.4 74 26 3 37.4 0
20:02 1020 30.12 849 25.07 23.3 73.9 25 2.6 36.7 0
20:03 1020 30.12 849 25.07 23.3 73.9 26 3 37.3 0
20:04 1020 30.12 849 25.07 23.2 73.8 26 3 37.4 0
20:05 1020 30.12 849 25.07 23.2 73.7 26 2.7 36.9 0
20:06 1020 30.12 849 25.07 23.2 73.7 25 2.4 36.3 0
20:07 1019 30.09 849 25.07 23.1 73.6 26 2.8 37 0
20:08 1020 30.12 849 25.07 23.2 73.7 25 2.5 36.5 0
20:09 1020 30.12 849 25.07 23.1 73.6 26 3 37.4 0
20:10 1019 30.09 849 25.07 23 73.5 26 2.8 37 0
20:11 1019 30.09 849 25.07 23 73.4 26 2.5 36.5 0
20:12 1020 30.12 849 25.07 23.1 73.5 26 2.6 36.7 0
20:13 1020 30.12 849 25.07 23.1 73.5 27 3.1 37.6 0
20:14 1019 30.09 849 25.07 23 73.4 27 3.1 37.6 0
20:15 1019 30.09 849 25.07 22.9 73.2 27 3 37.3 0
20:16 1019 30.09 849 25.07 22.9 73.2 27 3.1 37.6 0
20:17 1019 30.09 849 25.07 22.9 73.1 27 3.2 37.8 0
20:18 1019 30.09 849 25.07 22.8 73 27 3 37.4 0
20:19 1019 30.09 849 25.07 22.8 73 27 3.2 37.7 0
20:20 1019 30.09 849 25.07 22.7 72.9 27 2.9 37.2 0
20:21 1019 30.09 849 25.07 22.8 73 27 2.8 37.1 0
20:22 1019 30.09 849 25.07 22.8 73 27 3.2 37.8 0
20:23 1020 30.12 849 25.07 22.7 72.9 27 2.8 37.1 0
20:24 1020 30.12 849 25.07 22.7 72.9 27 2.7 36.9 0
20:25 1020 30.12 849 25.07 22.7 72.8 27 2.9 37.3 0
20:26 1020 30.12 849 25.07 22.7 72.9 27 3 37.4 0
20:27 1020 30.12 849 25.07 22.7 72.9 26 2.4 36.3 0
20:28 1020 30.12 849 25.07 22.8 73 27 3.1 37.5 0
20:29 1020 30.12 849 25.07 22.7 72.8 26 2.5 36.5 0
20:30 1020 30.12 849 25.07 22.7 72.8 27 2.7 36.8 0
20:31 1020 30.12 849 25.07 22.7 72.8 26 2.5 36.4 0
20:32 1020 30.12 849 25.07 22.7 72.8 27 3.2 37.7 0
20:33 1020 30.12 849 25.07 22.6 72.7 27 3 37.4 0
20:34 1019 30.09 849 25.07 22.6 72.7 27 2.7 36.8 0
20:35 1020 30.12 849 25.07 22.6 72.7 26 2.4 36.2 0
20:36 1020 30.12 849 25.07 22.6 72.7 26 2.5 36.5 0
20:37 1020 30.12 849 25.07 22.6 72.7 27 2.7 36.8 0
20:38 1020 30.12 849 25.07 22.6 72.7 27 3 37.4 0
20:39 1020 30.12 849 25.07 22.6 72.6 27 2.8 37.1 0
20:40 1020 30.12 849 25.07 22.5 72.5 27 2.9 37.3 0
20:41 1020 30.12 849 25.07 22.4 72.2 28 3.3 38 0
20:42 1020 30.12 849 25.07 22.1 71.8 29 3.2 37.8 0
20:43 1020 30.12 849 25.07 21.9 71.4 29 3.4 38.1 0
20:44 1020 30.12 849 25.07 21.7 71.1 29 3.3 38 0
20:45 1020 30.12 849 25.07 21.6 70.8 29 3.1 37.5 0
20:46 1020 30.12 849 25.07 21.6 70.8 29 3.1 37.6 0
20:47 1020 30.12 849 25.07 21.5 70.6 30 3.2 37.8 0
20:48 1020 30.12 849 25.07 21.4 70.4 31 3.5 38.3 0
20:49 1020 30.12 849 25.07 21.3 70.3 31 3.5 38.3 0
20:50 1020 30.12 849 25.07 21.2 70.2 31 3.5 38.2 0
20:51 1020 30.12 849 25.07 21.1 70 31 3.4 38.1 0
20:52 1020 30.12 849 25.07 21.1 69.9 31 3.4 38.1 0
20:53 1020 30.12 849 25.07 21 69.8 31 3.5 38.3 0
20:54 1020 30.12 849 25.07 20.9 69.6 31 3.4 38.2 0
20:55 1020 30.12 849 25.07 20.9 69.6 31 3.5 38.3 0
20:56 1020 30.12 849 25.07 20.9 69.5 32 3.6 38.5 0
20:57 1020 30.12 849 25.07 20.8 69.5 32 3.5 38.4 0
20:58 1020 30.12 849 25.07 20.7 69.3 32 3.6 38.5 0
20:59 1020 30.12 849 25.07 20.7 69.2 32 3.7 38.6 0
21:00 1020 30.12 849 25.07 20.6 69.1 33 3.7 38.7 0
21:01 1020 30.12 849 25.07 20.5 68.9 32 3.5 38.3 0
21:02 1020 30.12 849 25.07 20.5 68.9 32 3.5 38.3 0
21:03 1020 30.12 849 25.07 20.5 68.9 32 3.5 38.2 0
21:04 1020 30.12 849 25.07 20.5 69 32 3.5 38.4 0
21:05 1020 30.12 849 25.07 20.6 69.1 31 3.2 37.7 0
21:06 1020 30.12 849 25.07 20.7 69.2 31 3.2 37.7 0
21:07 1020 30.12 849 25.07 20.8 69.4 31 3.4 38.2 0
21:08 1020 30.12 849 25.07 20.7 69.3 33 4 39.2 0
21:09 1020 30.12 849 25.07 20.4 68.7 32 3.5 38.3 0
21:10 1020 30.12 849 25.07 20.3 68.6 33 3.6 38.5 0
21:11 1020 30.12 849 25.07 20.3 68.5 33 3.7 38.6 0
21:12 1020 30.12 849 25.07 20.2 68.4 33 3.5 38.4 0
21:13 1020 30.12 849 25.07 20.2 68.4 33 3.4 38.2 0
21:14 1020 30.12 849 25.07 20.2 68.3 33 3.4 38.1 0
21:15 1020 30.12 849 25.07 20.3 68.5 32 3.2 37.8 0
21:16 1020 30.12 849 25.07 20.4 68.7 31 3.1 37.5 0
21:17 1020 30.12 849 25.07 20.5 68.9 36 5 41 0
21:18 1020 30.12 849 25.07 19.9 67.8 38 5.3 41.6 0
21:19 1020 30.12 849 25.07 19.3 66.7 35 3.5 38.4 0
21:20 1020 30.12 849 25.07 19.3 66.8 37 4.5 40 0
21:21 1020 30.12 849 25.07 19.2 66.6 36 3.8 38.9 0
21:22 1020 30.12 849 25.07 19.3 66.8 39 5 41.1 0
21:23 1020 30.12 849 25.07 19 66.1 40 5 41 0
21:24 1020 30.12 849 25.07 18.7 65.7 39 4.8 40.6 0
21:25 1020 30.12 849 25.07 18.7 65.6 38 4.3 39.7 0
21:26 1020 30.12 849 25.07 18.7 65.7 36 3.6 38.5 0
21:27 1020 30.12 849 25.07 18.9 66 36 3.6 38.5 0
21:28 1020 30.12 849 25.07 19.1 66.4 35 3.6 38.4 0
21:29 1020 30.12 850 25.1 19.4 66.9 35 3.6 38.4 0
21:30 1020 30.12 850 25.1 19.6 67.2 35 4 39.2 0
21:31 1020 30.12 850 25.1 19.5 67 37 4.4 39.9 0
21:32 1020 30.12 850 25.1 19.2 66.5 41 5.6 42 0
21:33 1020 30.12 850 25.1 18.5 65.3 41 5.3 41.5 0
21:34 1020 30.12 850 25.1 17.9 64.2 43 5.1 41.3 0
21:35 1020 30.12 850 25.1 17.5 63.4 44 5.1 41.1 0
21:36 1020 30.12 850 25.1 17.2 62.9 46 5.5 41.9 0
21:37 1020 30.12 850 25.1 16.9 62.4 45 5 40.9 0
21:38 1021 30.15 850 25.1 16.9 62.5 42 4.1 39.4 0
21:39 1020 30.12 850 25.1 17.1 62.8 41 3.9 38.9 0
21:40 1021 30.15 850 25.1 17.4 63.4 42 4.4 40 0
21:41 1021 30.15 850 25.1 17.6 63.6 42 4.7 40.4 0
21:42 1021 30.15 850 25.1 17.5 63.5 43 4.9 40.9 0
21:43 1021 30.15 850 25.1 17.3 63.2 45 5.3 41.6 0
21:44 1021 30.15 850 25.1 16.9 62.5 46 5.4 41.7 0
21:45 1021 30.15 850 25.1 16.8 62.2 45 5 41 0
21:46 1021 30.15 850 25.1 16.8 62.3 46 5.4 41.7 0
21:47 1021 30.15 850 25.1 16.7 62.1 47 5.5 41.9 0
21:48 1021 30.15 850 25.1 16.6 61.9 48 5.5 41.9 0
21:49 1021 30.15 850 25.1 16.6 61.9 48 5.7 42.3 0
21:50 1021 30.15 850 25.1 16.5 61.7 48 5.7 42.3 0
21:51 1021 30.15 850 25.1 16.4 61.6 49 5.7 42.3 0
21:52 1021 30.15 850 25.1 16.4 61.5 50 6 42.8 0
21:53 1021 30.15 850 25.1 16.2 61.2 51 6 42.8 0
21:54 1021 30.15 850 25.1 16.1 61 51 6 42.9 0
21:55 1021 30.15 850 25.1 15.9 60.7 52 6.2 43.2 0
21:56 1021 30.15 850 25.1 15.7 60.3 53 6.2 43.2 0
21:57 1021 30.15 850 25.1 15.5 60 54 6.3 43.4 0
21:58 1021 30.15 850 25.1 15.3 59.6 55 6.3 43.4 0
21:59 1021 30.15 850 25.1 15.1 59.2 55 6.3 43.3 0
22:00 1021 30.15 850 25.1 15 58.9 57 6.5 43.7 0
22:01 1021 30.15 850 25.1 14.8 58.6 58 6.6 43.8 0
22:02 1021 30.15 850 25.1 14.6 58.3 58 6.6 43.9 0
22:03 1021 30.15 850 25.1 14.4 57.9 59 6.6 43.9 0
22:04 1021 30.15 850 25.1 14.2 57.6 60 6.7 44 0
22:05 1021 30.15 850 25.1 14.1 57.3 61 6.6 44 0
22:06 1021 30.15 850 25.1 14 57.2 61 6.6 43.8 0
22:07 1021 30.15 850 25.1 14 57.2 60 6.4 43.5 0
22:08 1021 30.15 850 25.1 14.1 57.3 60 6.4 43.5 0
22:09 1021 30.15 850 25.1 14.1 57.4 59 6.4 43.4 0
22:10 1021 30.15 850 25.1 14.1 57.4 59 6.3 43.4 0
22:11 1021 30.15 850 25.1 14.2 57.5 59 6.4 43.6 0
22:12 1021 30.15 850 25.1 14.1 57.4 60 6.5 43.7 0
22:13 1021 30.15 850 25.1 14.1 57.3 60 6.5 43.6 0
22:14 1021 30.15 850 25.1 14.1 57.4 59 6.4 43.5 0
22:15 1021 30.15 850 25.1 14.2 57.5 59 6.3 43.3 0
22:16 1021 30.15 850 25.1 14.3 57.7 59 6.4 43.4 0
22:17 1021 30.15 850 25.1 14.4 57.8 59 6.5 43.7 0
22:18 1021 30.15 850 25.1 14.4 57.9 59 6.6 43.9 0
22:19 1021 30.15 850 25.1 14.3 57.8 59 6.5 43.8 0
22:20 1021 30.15 850 25.1 14.3 57.7 59 6.4 43.6 0
22:21 1021 30.15 850 25.1 14.4 57.8 59 6.5 43.7 0
22:22 1021 30.15 850 25.1 14.4 57.8 59 6.5 43.7 0
22:23 1021 30.15 850 25.1 14.4 57.9 59 6.5 43.7 0
22:24 1021 30.15 850 25.1 14.4 57.9 59 6.5 43.7 0
22:25 1021 30.15 850 25.1 14.4 57.9 58 6.3 43.4 0
22:26 1021 30.15 850 25.1 14.4 58 58 6.4 43.5 0
22:27 1021 30.15 850 25.1 14.4 57.9 59 6.5 43.6 0
22:28 1021 30.15 850 25.1 14.3 57.7 59 6.5 43.7 0
22:29 1021 30.15 850 25.1 14.2 57.5 60 6.6 43.8 0
22:30 1021 30.15 850 25.1 14 57.3 60 6.6 43.8 0
22:31 1021 30.15 850 25.1 13.9 57.1 61 6.5 43.7 0
22:32 1021 30.15 850 25.1 13.9 57.1 60 6.4 43.5 0
22:33 1021 30.15 851 25.13 14 57.1 60 6.4 43.5 0
22:34 1021 30.15 851 25.13 14 57.2 60 6.4 43.4 0
22:35 1021 30.15 851 25.13 14.1 57.3 59 6.3 43.4 0
22:36 1021 30.15 851 25.13 14.1 57.4 59 6.4 43.5 0
22:37 1021 30.15 851 25.13 14.1 57.4 59 6.3 43.4 0
22:38 1021 30.15 851 25.13 14.2 57.6 59 6.3 43.4 0
22:39 1022 30.18 851 25.13 14.2 57.6 59 6.5 43.7 0
22:40 1022 30.18 851 25.13 14.3 57.7 60 6.6 43.9 0
22:41 1022 30.18 851 25.13 14.3 57.7 60 6.6 43.9 0
22:42 1022 30.18 851 25.13 14.3 57.7 60 6.6 43.9 0
22:43 1022 30.18 851 25.13 14.4 57.9 60 6.8 44.2 0
22:44 1022 30.18 851 25.13 14.4 58 59 6.6 44 0
22:45 1022 30.18 851 25.13 14.5 58.2 57 6.3 43.3 0
22:46 1022 30.18 851 25.13 14.8 58.7 57 6.4 43.4 0
22:47 1022 30.18 851 25.13 15 59 55 6.2 43.1 0
22:48 1022 30.18 851 25.13 15.2 59.4 54 6.1 43 0
22:49 1022 30.18 851 25.13 15.5 59.8 54 6.3 43.3 0
22:50 1022 30.18 851 25.13 15.6 60.1 53 6.1 43 0
22:51 1022 30.18 851 25.13 15.8 60.4 52 6.1 42.9 0
22:52 1022 30.18 851 25.13 16 60.9 52 6.2 43.1 0
22:53 1022 30.18 851 25.13 16.2 61.2 51 6.2 43.1 0
22:54 1022 30.18 851 25.13 16.4 61.5 51 6.3 43.4 0
22:55 1022 30.18 851 25.13 16.5 61.7 50 6 42.8 0
22:56 1022 30.18 851 25.13 16.7 62 49 6 42.8 0
22:57 1022 30.18 851 25.13 16.8 62.2 49 6 42.8 0
22:58 1022 30.18 851 25.13 16.8 62.3 48 5.9 42.7 0
22:59 1022 30.18 851 25.13 16.9 62.4 50 6.4 43.5 0
23:00 1022 30.18 851 25.13 16.9 62.3 50 6.5 43.6 0
23:01 1022 30.18 851 25.13 16.8 62.2 49 6 42.9 0
23:02 1022 30.18 851 25.13 16.8 62.2 49 6.1 42.9 0
23:03 1022 30.18 851 25.13 16.8 62.2 49 6.1 42.9 0
23:04 1022 30.18 851 25.13 16.8 62.3 49 6 42.8 0
23:05 1022 30.18 851 25.13 16.8 62.2 49 6 42.8 0
23:06 1022 30.18 851 25.13 16.8 62.2 48 5.8 42.5 0
23:07 1022 30.18 851 25.13 16.8 62.3 48 6 42.7 0
23:08 1022 30.18 851 25.13 16.8 62.2 48 5.9 42.7 0
23:09 1022 30.18 851 25.13 16.8 62.2 48 5.9 42.6 0
23:10 1022 30.18 851 25.13 16.8 62.2 49 6.1 43 0
23:11 1022 30.18 851 25.13 16.6 62 49 6 42.9 0
23:12 1021 30.15 851 25.13 16.6 61.9 50 6.1 43 0
23:13 1021 30.15 851 25.13 16.6 61.8 51 6.4 43.5 0
23:14 1021 30.15 851 25.13 16.4 61.6 52 6.6 43.9 0
23:15 1021 30.15 851 25.13 16.3 61.3 53 6.7 44 0
23:16 1021 30.15 851 25.13 16.1 60.9 53 6.7 44 0
23:17 1021 30.15 851 25.13 15.9 60.6 54 6.8 44.3 0
23:18 1021 30.15 851 25.13 15.7 60.2 56 6.9 44.4 0
23:19 1021 30.15 851 25.13 15.5 59.9 56 6.9 44.5 0
23:20 1022 30.18 851 25.13 15.3 59.6 57 7 44.5 0
23:21 1021 30.15 851 25.13 15.1 59.2 58 6.9 44.4 0
23:22 1021 30.15 851 25.13 15 59 58 6.9 44.5 0
23:23 1022 30.18 851 25.13 14.9 58.8 58 6.8 44.2 0
23:24 1021 30.15 851 25.13 14.9 58.8 58 6.9 44.3 0
23:25 1021 30.15 851 25.13 14.8 58.7 58 6.8 44.2 0
23:26 1021 30.15 851 25.13 14.8 58.7 59 6.8 44.3 0
23:27 1021 30.15 851 25.13 14.7 58.5 59 6.9 44.4 0
23:28 1021 30.15 851 25.13 14.6 58.2 60 6.9 44.4 0
23:29 1021 30.15 851 25.13 14.5 58 61 7 44.7 0
23:30 1021 30.15 851 25.13 14.4 57.8 61 7.1 44.7 0
23:31 1021 30.15 851 25.13 14.3 57.7 61 6.9 44.5 0
23:32 1021 30.15 851 25.13 14.2 57.6 62 7 44.6 0
23:33 1021 30.15 851 25.13 14.1 57.4 62 7 44.6 0
23:34 1021 30.15 851 25.13 14 57.3 62 7 44.6 0
23:35 1022 30.18 851 25.13 14.1 57.3 63 7.1 44.8 0
23:36 1022 30.18 851 25.13 14 57.3 63 7.1 44.7 0
23:37 1022 30.18 851 25.13 14 57.2 62 7 44.5 0
23:38 1022 30.18 851 25.13 14 57.2 62 6.9 44.4 0
23:39 1022 30.18 851 25.13 14 57.2 61 6.7 44.1 0
23:40 1022 30.18 851 25.13 14.1 57.4 61 6.7 44.1 0
23:41 1022 30.18 851 25.13 14.2 57.5 60 6.5 43.7 0
23:42 1022 30.18 851 25.13 14.3 57.8 59 6.5 43.7 0
23:43 1022 30.18 851 25.13 14.4 57.9 59 6.5 43.7 0
23:44 1022 30.18 851 25.13 14.4 58 58 6.5 43.6 0
23:45 1022 30.18 851 25.13 14.5 58.1 58 6.4 43.5 0
23:46 1022 30.18 851 25.13 14.6 58.3 57 6.4 43.5 0
23:47 1022 30.18 851 25.13 14.7 58.4 57 6.3 43.3 0
23:48 1022 30.18 851 25.13 14.7 58.5 57 6.3 43.3 0
23:49 1022 30.18 851 25.13 14.7 58.5 57 6.3 43.4 0
23:50 1022 30.18 851 25.13 14.7 58.5 57 6.3 43.3 0
23:51 1022 30.18 851 25.13 14.7 58.5 57 6.4 43.5 0
23:52 1022 30.18 851 25.13 14.7 58.4 57 6.4 43.5 0
23:53 1022 30.18 851 25.13 14.6 58.2 58 6.4 43.5 0
23:54 1022 30.18 851 25.13 14.5 58.1 57 6.3 43.3 0
23:55 1022 30.18 851 25.13 14.4 57.9 58 6.3 43.3 0
23:56 1022 30.18 851 25.13 14.3 57.8 58 6.3 43.3 0
23:57 1022 30.18 851 25.13 14.3 57.8 58 6.2 43.2 0
23:58 1022 30.18 851 25.13 14.3 57.8 57 6.1 43 0
23:59 1022 30.18 851 25.13 14.4 57.8 58 6.2 43.1 0
24:00 1022 30.18 851 25.13 14.3 57.8 58 6.1 43.1 0